Observation data for Amarillo 9 North Northeast on 07/11/2018      Previous  Date       Current Mesonet Observations  Soil Data  Daily Summary Page  Observations in Plain Language
KAM2 110500Z 17008KT 23/16 A3014 RMK A01 T02280162  RH  066%=      5-min Rain = 0
KAM2 110501Z 17008KT 23/16 A3014 RMK A01 T02280162  RH  066%=      5-min Rain = 0
KAM2 110502Z 17008KT 23/16 A3014 RMK A01 T02280162  RH  066%=      5-min Rain = 0
KAM2 110503Z 16007KT 23/16 A3014 RMK A01 T02290162  RH  066%=      5-min Rain = 0
KAM2 110504Z 16007KT 23/16 A3014 RMK A01 T02290162  RH  066%=      5-min Rain = 0
KAM2 110505Z 16007KT 23/16 A3014 RMK A01 T02280162  RH  066%=      5-min Rain = 0
KAM2 110506Z 16008KT 23/16 A3014 RMK A01 T02280162  RH  066%=      5-min Rain = 0
KAM2 110507Z 15007KT 23/16 A3014 RMK A01 T02280162  RH  066%=      5-min Rain = 0
KAM2 110508Z 15006KT 23/16 A3014 RMK A01 T02280162  RH  066%=      5-min Rain = 0
KAM2 110509Z 15006KT 23/16 A3015 RMK A01 T02290163  RH  066%=      5-min Rain = 0
KAM2 110510Z 15005KT 23/16 A3015 RMK A01 T02300163  RH  066%=      5-min Rain = 0
KAM2 110511Z 16006KT 23/16 A3015 RMK A01 T02290163  RH  066%=      5-min Rain = 0
KAM2 110512Z 16006KT 23/16 A3015 RMK A01 T02300163  RH  066%=      5-min Rain = 0
KAM2 110513Z 16006KT 23/16 A3015 RMK A01 T02300163  RH  066%=      5-min Rain = 0
KAM2 110514Z 16006KT 23/16 A3015 RMK A01 T02310163  RH  066%=      5-min Rain = 0
KAM2 110515Z 16007KT 23/16 A3015 RMK A01 T02310163  RH  066%=      5-min Rain = 0
KAM2 110516Z 16007KT 23/16 A3015 RMK A01 T02310163  RH  066%=      5-min Rain = 0
KAM2 110517Z 16006KT 23/16 A3015 RMK A01 T02300163  RH  066%=      5-min Rain = 0
KAM2 110518Z 17008KT 23/16 A3015 RMK A01 T02300163  RH  066%=      5-min Rain = 0
KAM2 110519Z 16007KT 23/16 A3015 RMK A01 T02300162  RH  066%=      5-min Rain = 0
KAM2 110520Z 16008KT 23/16 A3015 RMK A01 T02300162  RH  066%=      5-min Rain = 0
KAM2 110521Z 15007KT 23/16 A3015 RMK A01 T02300162  RH  066%=      5-min Rain = 0
KAM2 110522Z 15006KT 23/16 A3015 RMK A01 T02300162  RH  066%=      5-min Rain = 0
KAM2 110523Z 16006KT 23/16 A3015 RMK A01 T02300162  RH  066%=      5-min Rain = 0
KAM2 110524Z 16006KT 23/16 A3015 RMK A01 T02300162  RH  065%=      5-min Rain = 0
KAM2 110525Z 16006KT 23/16 A3015 RMK A01 T02310162  RH  065%=      5-min Rain = 0
KAM2 110526Z 16006KT 23/16 A3015 RMK A01 T02310162  RH  065%=      5-min Rain = 0
KAM2 110527Z 16006KT 23/16 A3015 RMK A01 T02310163  RH  065%=      5-min Rain = 0
KAM2 110528Z 16006KT 23/16 A3015 RMK A01 T02300162  RH  065%=      5-min Rain = 0
KAM2 110529Z 16006KT 23/16 A3015 RMK A01 T02300163  RH  066%=      5-min Rain = 0
KAM2 110530Z 15007KT 23/16 A3015 RMK A01 T02300163  RH  066%=      5-min Rain = 0
KAM2 110531Z 16006KT 23/16 A3015 RMK A01 T02300163  RH  066%=      5-min Rain = 0
KAM2 110532Z 16007KT 23/16 A3015 RMK A01 T02300163  RH  066%=      5-min Rain = 0
KAM2 110533Z 16008KT 23/16 A3015 RMK A01 T02300163  RH  066%=      5-min Rain = 0
KAM2 110534Z 16007KT 23/16 A3015 RMK A01 T02300162  RH  066%=      5-min Rain = 0
KAM2 110535Z 16007KT 23/16 A3015 RMK A01 T02290162  RH  066%=      5-min Rain = 0
KAM2 110536Z 16007KT 23/16 A3015 RMK A01 T02300162  RH  066%=      5-min Rain = 0
KAM2 110537Z 16007KT 23/16 A3015 RMK A01 T02290162  RH  066%=      5-min Rain = 0
KAM2 110538Z 17006KT 23/16 A3015 RMK A01 T02290162  RH  066%=      5-min Rain = 0
KAM2 110539Z 16006KT 23/16 A3015 RMK A01 T02280162  RH  066%=      5-min Rain = 0
KAM2 110540Z 17007KT 23/16 A3015 RMK A01 T02280162  RH  066%=      5-min Rain = 0
KAM2 110541Z 17006KT 23/16 A3015 RMK A01 T02270162  RH  067%=      5-min Rain = 0
KAM2 110542Z 17006KT 23/16 A3015 RMK A01 T02270162  RH  067%=      5-min Rain = 0
KAM2 110543Z 17006KT 23/16 A3015 RMK A01 T02260162  RH  067%=      5-min Rain = 0
KAM2 110544Z 17007KT 23/16 A3015 RMK A01 T02260162  RH  067%=      5-min Rain = 0
KAM2 110545Z 17007KT 23/16 A3015 RMK A01 T02250162  RH  067%=      5-min Rain = 0
KAM2 110546Z 17007KT 23/16 A3015 RMK A01 T02250162  RH  068%=      5-min Rain = 0
KAM2 110547Z 17007KT 23/16 A3015 RMK A01 T02250163  RH  068%=      5-min Rain = 0
KAM2 110548Z 17007KT 23/16 A3015 RMK A01 T02250162  RH  068%=      5-min Rain = 0
KAM2 110549Z 17007KT 23/16 A3015 RMK A01 T02250163  RH  068%=      5-min Rain = 0
KAM2 110550Z 18006KT 23/16 A3015 RMK A01 T02250163  RH  068%=      5-min Rain = 0
KAM2 110551Z 18007KT 23/16 A3015 RMK A01 T02250163  RH  068%=      5-min Rain = 0
KAM2 110552Z 18007KT 22/16 A3015 RMK A01 T02240163  RH  068%=      5-min Rain = 0
KAM2 110553Z 18007KT 22/16 A3015 RMK A01 T02240163  RH  069%=      5-min Rain = 0
KAM2 110554Z 17007KT 22/16 A3015 RMK A01 T02240164  RH  069%=      5-min Rain = 0
KAM2 110555Z 18006KT 22/16 A3015 RMK A01 T02240164  RH  069%=      5-min Rain = 0
KAM2 110556Z 18007KT 22/16 A3015 RMK A01 T02230164  RH  069%=      5-min Rain = 0
KAM2 110557Z 18006KT 22/16 A3015 RMK A01 T02240164  RH  069%=      5-min Rain = 0
KAM2 110558Z 18007KT 22/16 A3015 RMK A01 T02240164  RH  069%=      5-min Rain = 0
KAM2 110559Z 18007KT 22/16 A3015 RMK A01 T02240164  RH  069%=      5-min Rain = 0
KAM2 110600Z 17007KT 22/17 A3015 RMK A01 T02240165  RH  069%=      5-min Rain = 0
KAM2 110601Z 17007KT 22/17 A3015 RMK A01 T02240165  RH  069%=      5-min Rain = 0
KAM2 110602Z 17007KT 22/17 A3015 RMK A01 T02240165  RH  069%=      5-min Rain = 0
KAM2 110603Z 17007KT 22/17 A3015 RMK A01 T02240165  RH  069%=      5-min Rain = 0
KAM2 110604Z 17007KT 22/17 A3015 RMK A01 T02240165  RH  069%=      5-min Rain = 0
KAM2 110605Z 17008KT 22/17 A3015 RMK A01 T02240166  RH  069%=      5-min Rain = 0
KAM2 110606Z 18007KT 22/17 A3015 RMK A01 T02240165  RH  069%=      5-min Rain = 0
KAM2 110607Z 17008KT 22/17 A3015 RMK A01 T02240165  RH  069%=      5-min Rain = 0
KAM2 110608Z 17008KT 22/17 A3015 RMK A01 T02240166  RH  069%=      5-min Rain = 0
KAM2 110609Z 17007KT 22/17 A3015 RMK A01 T02240166  RH  070%=      5-min Rain = 0
KAM2 110610Z 17007KT 22/17 A3015 RMK A01 T02240166  RH  070%=      5-min Rain = 0
KAM2 110611Z 18008KT 22/17 A3015 RMK A01 T02240166  RH  070%=      5-min Rain = 0
KAM2 110612Z 18008KT 22/17 A3015 RMK A01 T02230166  RH  070%=      5-min Rain = 0
KAM2 110613Z 18009KT 22/17 A3015 RMK A01 T02240166  RH  070%=      5-min Rain = 0
KAM2 110614Z 17008KT 22/17 A3015 RMK A01 T02230166  RH  070%=      5-min Rain = 0
KAM2 110615Z 18008KT 22/17 A3015 RMK A01 T02240166  RH  070%=      5-min Rain = 0
KAM2 110616Z 17008KT 22/17 A3015 RMK A01 T02240166  RH  070%=      5-min Rain = 0
KAM2 110617Z 17008KT 22/17 A3015 RMK A01 T02230166  RH  070%=      5-min Rain = 0
KAM2 110618Z 17009KT 22/17 A3015 RMK A01 T02230166  RH  070%=      5-min Rain = 0
KAM2 110619Z 17008KT 22/17 A3015 RMK A01 T02240166  RH  070%=      5-min Rain = 0
KAM2 110620Z 17008KT 22/17 A3015 RMK A01 T02230166  RH  070%=      5-min Rain = 0
KAM2 110621Z 17008KT 22/17 A3015 RMK A01 T02230166  RH  070%=      5-min Rain = 0
KAM2 110622Z 17008KT 22/17 A3015 RMK A01 T02230166  RH  070%=      5-min Rain = 0
KAM2 110623Z 17007KT 22/17 A3015 RMK A01 T02230166  RH  070%=      5-min Rain = 0
KAM2 110624Z 17007KT 22/17 A3015 RMK A01 T02230166  RH  070%=      5-min Rain = 0
KAM2 110625Z 17007KT 22/17 A3015 RMK A01 T02220166  RH  070%=      5-min Rain = 0
KAM2 110626Z 18006KT 22/17 A3015 RMK A01 T02220166  RH  071%=      5-min Rain = 0
KAM2 110627Z 18006KT 22/17 A3015 RMK A01 T02220166  RH  071%=      5-min Rain = 0
KAM2 110628Z 18006KT 22/17 A3015 RMK A01 T02210166  RH  071%=      5-min Rain = 0
KAM2 110629Z 18006KT 22/17 A3015 RMK A01 T02210166  RH  071%=      5-min Rain = 0
KAM2 110630Z 18006KT 22/17 A3015 RMK A01 T02200166  RH  071%=      5-min Rain = 0
KAM2 110631Z 18007KT 22/17 A3015 RMK A01 T02200166  RH  071%=      5-min Rain = 0
KAM2 110632Z 18007KT 22/17 A3015 RMK A01 T02200166  RH  071%=      5-min Rain = 0
KAM2 110633Z 17007KT 22/17 A3015 RMK A01 T02200165  RH  071%=      5-min Rain = 0
KAM2 110634Z 17007KT 22/17 A3015 RMK A01 T02200165  RH  071%=      5-min Rain = 0
KAM2 110635Z 17007KT 22/17 A3014 RMK A01 T02200165  RH  071%=      5-min Rain = 0
KAM2 110636Z 18008KT 22/17 A3015 RMK A01 T02200165  RH  071%=      5-min Rain = 0
KAM2 110637Z 17008KT 22/17 A3015 RMK A01 T02200165  RH  071%=      5-min Rain = 0
KAM2 110638Z 17009KT 22/17 A3014 RMK A01 T02200165  RH  071%=      5-min Rain = 0
KAM2 110639Z 18008KT 22/17 A3014 RMK A01 T02200165  RH  071%=      5-min Rain = 0
KAM2 110640Z 18008KT 22/17 A3014 RMK A01 T02200165  RH  071%=      5-min Rain = 0
KAM2 110641Z 17008KT 22/17 A3014 RMK A01 T02200165  RH  071%=      5-min Rain = 0
KAM2 110642Z 17008KT 22/17 A3014 RMK A01 T02200165  RH  071%=      5-min Rain = 0
KAM2 110643Z 17009KT 22/17 A3014 RMK A01 T02200165  RH  071%=      5-min Rain = 0
KAM2 110644Z 17008KT 22/17 A3014 RMK A01 T02200165  RH  071%=      5-min Rain = 0
KAM2 110645Z 17010KT 22/17 A3014 RMK A01 T02210165  RH  071%=      5-min Rain = 0
KAM2 110646Z 17008KT 22/17 A3014 RMK A01 T02210165  RH  070%=      5-min Rain = 0
KAM2 110647Z 17008KT 22/17 A3014 RMK A01 T02220165  RH  070%=      5-min Rain = 0
KAM2 110648Z 17007KT 22/17 A3014 RMK A01 T02220165  RH  070%=      5-min Rain = 0
KAM2 110649Z 17007KT 22/17 A3014 RMK A01 T02210165  RH  070%=      5-min Rain = 0
KAM2 110650Z 17007KT 22/17 A3014 RMK A01 T02210165  RH  070%=      5-min Rain = 0
KAM2 110651Z 17007KT 22/17 A3014 RMK A01 T02210165  RH  071%=      5-min Rain = 0
KAM2 110652Z 17007KT 22/17 A3014 RMK A01 T02210165  RH  071%=      5-min Rain = 0
KAM2 110653Z 17007KT 22/17 A3014 RMK A01 T02210165  RH  071%=      5-min Rain = 0
KAM2 110654Z 17007KT 22/17 A3014 RMK A01 T02210165  RH  071%=      5-min Rain = 0
KAM2 110655Z 18007KT 22/17 A3014 RMK A01 T02200165  RH  071%=      5-min Rain = 0
KAM2 110656Z 18008KT 22/17 A3014 RMK A01 T02200165  RH  071%=      5-min Rain = 0
KAM2 110657Z 18007KT 22/17 A3014 RMK A01 T02200165  RH  071%=      5-min Rain = 0
KAM2 110658Z 18007KT 22/17 A3014 RMK A01 T02200165  RH  071%=      5-min Rain = 0
KAM2 110659Z 18008KT 22/16 A3014 RMK A01 T02200164  RH  071%=      5-min Rain = 0
KAM2 110700Z 18008KT 22/17 A3014 RMK A01 T02200165  RH  071%=      5-min Rain = 0
KAM2 110701Z 18006KT 22/17 A3014 RMK A01 T02200165  RH  071%=      5-min Rain = 0
KAM2 110702Z 17007KT 22/17 A3014 RMK A01 T02200165  RH  071%=      5-min Rain = 0
KAM2 110703Z 17007KT 22/17 A3014 RMK A01 T02200165  RH  071%=      5-min Rain = 0
KAM2 110704Z 17007KT 22/17 A3014 RMK A01 T02200165  RH  071%=      5-min Rain = 0
KAM2 110705Z 17007KT 22/16 A3014 RMK A01 T02190164  RH  071%=      5-min Rain = 0
KAM2 110706Z 17007KT 22/16 A3014 RMK A01 T02190164  RH  071%=      5-min Rain = 0
KAM2 110707Z 17007KT 22/16 A3014 RMK A01 T02190164  RH  071%=      5-min Rain = 0
KAM2 110708Z 17007KT 22/16 A3014 RMK A01 T02190164  RH  071%=      5-min Rain = 0
KAM2 110709Z 17007KT 22/16 A3014 RMK A01 T02190164  RH  071%=      5-min Rain = 0
KAM2 110710Z 17007KT 22/16 A3014 RMK A01 T02180164  RH  071%=      5-min Rain = 0
KAM2 110711Z 17007KT 22/16 A3014 RMK A01 T02180164  RH  071%=      5-min Rain = 0
KAM2 110712Z 17007KT 22/16 A3014 RMK A01 T02180164  RH  072%=      5-min Rain = 0
KAM2 110713Z 17007KT 22/16 A3014 RMK A01 T02170164  RH  072%=      5-min Rain = 0
KAM2 110714Z 17007KT 22/16 A3014 RMK A01 T02170164  RH  072%=      5-min Rain = 0
KAM2 110715Z 17007KT 22/16 A3014 RMK A01 T02160164  RH  072%=      5-min Rain = 0
KAM2 110716Z 17007KT 22/16 A3014 RMK A01 T02160164  RH  072%=      5-min Rain = 0
KAM2 110717Z 17007KT 22/16 A3014 RMK A01 T02160164  RH  072%=      5-min Rain = 0
KAM2 110718Z 17007KT 22/16 A3014 RMK A01 T02150163  RH  072%=      5-min Rain = 0
KAM2 110719Z 17007KT 22/16 A3014 RMK A01 T02150163  RH  072%=      5-min Rain = 0
KAM2 110720Z 16007KT 22/16 A3014 RMK A01 T02150163  RH  072%=      5-min Rain = 0
KAM2 110721Z 16007KT 22/16 A3014 RMK A01 T02150163  RH  072%=      5-min Rain = 0
KAM2 110722Z 16007KT 21/16 A3014 RMK A01 T02140163  RH  073%=      5-min Rain = 0
KAM2 110723Z 16007KT 21/16 A3014 RMK A01 T02130163  RH  073%=      5-min Rain = 0
KAM2 110724Z 15006KT 21/16 A3014 RMK A01 T02120163  RH  073%=      5-min Rain = 0
KAM2 110725Z 15007KT 21/16 A3014 RMK A01 T02120163  RH  074%=      5-min Rain = 0
KAM2 110726Z 16007KT 21/16 A3014 RMK A01 T02120163  RH  074%=      5-min Rain = 0
KAM2 110727Z 15007KT 21/16 A3014 RMK A01 T02120163  RH  074%=      5-min Rain = 0
KAM2 110728Z 15007KT 21/16 A3014 RMK A01 T02120163  RH  074%=      5-min Rain = 0
KAM2 110729Z 16007KT 21/16 A3014 RMK A01 T02120163  RH  073%=      5-min Rain = 0
KAM2 110730Z 16007KT 21/16 A3014 RMK A01 T02120163  RH  073%=      5-min Rain = 0
KAM2 110731Z 15007KT 21/16 A3014 RMK A01 T02120162  RH  073%=      5-min Rain = 0
KAM2 110732Z 15007KT 21/16 A3014 RMK A01 T02120162  RH  073%=      5-min Rain = 0
KAM2 110733Z 15007KT 21/16 A3014 RMK A01 T02130163  RH  073%=      5-min Rain = 0
KAM2 110734Z 15008KT 21/16 A3014 RMK A01 T02140163  RH  072%=      5-min Rain = 0
KAM2 110735Z 15008KT 22/16 A3014 RMK A01 T02150163  RH  072%=      5-min Rain = 0
KAM2 110736Z 15008KT 22/16 A3014 RMK A01 T02150163  RH  072%=      5-min Rain = 0
KAM2 110737Z 15007KT 22/16 A3014 RMK A01 T02160163  RH  072%=      5-min Rain = 0
KAM2 110738Z 16007KT 22/16 A3014 RMK A01 T02160163  RH  072%=      5-min Rain = 0
KAM2 110739Z 16007KT 22/16 A3014 RMK A01 T02160163  RH  072%=      5-min Rain = 0
KAM2 110740Z 16008KT 22/16 A3014 RMK A01 T02160163  RH  071%=      5-min Rain = 0
KAM2 110741Z 16007KT 22/16 A3014 RMK A01 T02160162  RH  071%=      5-min Rain = 0
KAM2 110742Z 16007KT 22/16 A3014 RMK A01 T02160163  RH  071%=      5-min Rain = 0
KAM2 110743Z 16007KT 22/16 A3014 RMK A01 T02160162  RH  071%=      5-min Rain = 0
KAM2 110744Z 16006KT 22/16 A3014 RMK A01 T02160162  RH  072%=      5-min Rain = 0
KAM2 110745Z 16007KT 22/16 A3014 RMK A01 T02150162  RH  072%=      5-min Rain = 0
KAM2 110746Z 16007KT 22/16 A3014 RMK A01 T02150162  RH  072%=      5-min Rain = 0
KAM2 110747Z 16007KT 21/16 A3014 RMK A01 T02140162  RH  072%=      5-min Rain = 0
KAM2 110748Z 16007KT 21/16 A3014 RMK A01 T02140162  RH  072%=      5-min Rain = 0
KAM2 110749Z 16007KT 21/16 A3014 RMK A01 T02130162  RH  072%=      5-min Rain = 0
KAM2 110750Z 16007KT 21/16 A3014 RMK A01 T02130162  RH  072%=      5-min Rain = 0
KAM2 110751Z 16007KT 21/16 A3014 RMK A01 T02130162  RH  072%=      5-min Rain = 0
KAM2 110752Z 16007KT 21/16 A3014 RMK A01 T02130162  RH  073%=      5-min Rain = 0
KAM2 110753Z 16007KT 21/16 A3014 RMK A01 T02130162  RH  073%=      5-min Rain = 0
KAM2 110754Z 16007KT 21/16 A3014 RMK A01 T02120162  RH  073%=      5-min Rain = 0
KAM2 110755Z 16007KT 21/16 A3014 RMK A01 T02120162  RH  073%=      5-min Rain = 0
KAM2 110756Z 16007KT 21/16 A3014 RMK A01 T02120163  RH  073%=      5-min Rain = 0
KAM2 110757Z 16006KT 21/16 A3014 RMK A01 T02120163  RH  073%=      5-min Rain = 0
KAM2 110758Z 16006KT 21/16 A3014 RMK A01 T02120162  RH  073%=      5-min Rain = 0
KAM2 110759Z 16006KT 21/16 A3014 RMK A01 T02110163  RH  074%=      5-min Rain = 0
KAM2 110800Z 16006KT 21/16 A3014 RMK A01 T02110163  RH  074%=      5-min Rain = 0
KAM2 110801Z 17006KT 21/16 A3014 RMK A01 T02110163  RH  074%=      5-min Rain = 0
KAM2 110802Z 16006KT 21/16 A3014 RMK A01 T02110163  RH  074%=      5-min Rain = 0
KAM2 110803Z 17006KT 21/16 A3014 RMK A01 T02110163  RH  074%=      5-min Rain = 0
KAM2 110804Z 16006KT 21/16 A3014 RMK A01 T02110163  RH  074%=      5-min Rain = 0
KAM2 110805Z 17006KT 21/16 A3014 RMK A01 T02110163  RH  074%=      5-min Rain = 0
KAM2 110806Z 16006KT 21/16 A3014 RMK A01 T02100163  RH  074%=      5-min Rain = 0
KAM2 110807Z 17006KT 21/16 A3014 RMK A01 T02100163  RH  074%=      5-min Rain = 0
KAM2 110808Z 17006KT 21/16 A3014 RMK A01 T02100163  RH  074%=      5-min Rain = 0
KAM2 110809Z 17006KT 21/16 A3014 RMK A01 T02110163  RH  074%=      5-min Rain = 0
KAM2 110810Z 17006KT 21/16 A3014 RMK A01 T02110163  RH  074%=      5-min Rain = 0
KAM2 110811Z 17006KT 21/16 A3014 RMK A01 T02110163  RH  074%=      5-min Rain = 0
KAM2 110812Z 16006KT 21/16 A3014 RMK A01 T02110163  RH  074%=      5-min Rain = 0
KAM2 110813Z 17006KT 21/16 A3014 RMK A01 T02110164  RH  074%=      5-min Rain = 0
KAM2 110814Z 16006KT 21/16 A3014 RMK A01 T02110164  RH  075%=      5-min Rain = 0
KAM2 110815Z 16007KT 21/16 A3014 RMK A01 T02100164  RH  075%=      5-min Rain = 0
KAM2 110816Z 16007KT 21/16 A3014 RMK A01 T02110164  RH  075%=      5-min Rain = 0
KAM2 110817Z 16007KT 21/16 A3013 RMK A01 T02110164  RH  075%=      5-min Rain = 0
KAM2 110818Z 16007KT 21/17 A3013 RMK A01 T02120165  RH  074%=      5-min Rain = 0
KAM2 110819Z 16007KT 21/16 A3014 RMK A01 T02120164  RH  074%=      5-min Rain = 0
KAM2 110820Z 16007KT 21/16 A3013 RMK A01 T02130164  RH  074%=      5-min Rain = 0
KAM2 110821Z 16007KT 21/16 A3013 RMK A01 T02130164  RH  074%=      5-min Rain = 0
KAM2 110822Z 17007KT 21/17 A3013 RMK A01 T02140165  RH  074%=      5-min Rain = 0
KAM2 110823Z 16006KT 21/16 A3013 RMK A01 T02140164  RH  074%=      5-min Rain = 0
KAM2 110824Z 16007KT 21/16 A3013 RMK A01 T02130164  RH  073%=      5-min Rain = 0
KAM2 110825Z 17007KT 21/16 A3013 RMK A01 T02130164  RH  073%=      5-min Rain = 0
KAM2 110826Z 16007KT 21/16 A3013 RMK A01 T02130164  RH  074%=      5-min Rain = 0
KAM2 110827Z 16007KT 21/17 A3013 RMK A01 T02140165  RH  074%=      5-min Rain = 0
KAM2 110828Z 16007KT 21/16 A3013 RMK A01 T02130164  RH  074%=      5-min Rain = 0
KAM2 110829Z 16007KT 21/16 A3013 RMK A01 T02130164  RH  074%=      5-min Rain = 0
KAM2 110830Z 16007KT 21/16 A3013 RMK A01 T02130164  RH  074%=      5-min Rain = 0
KAM2 110831Z 16007KT 21/16 A3014 RMK A01 T02130164  RH  074%=      5-min Rain = 0
KAM2 110832Z 16007KT 21/16 A3014 RMK A01 T02120164  RH  074%=      5-min Rain = 0
KAM2 110833Z 16007KT 21/16 A3014 RMK A01 T02120164  RH  074%=      5-min Rain = 0
KAM2 110834Z 16007KT 21/16 A3013 RMK A01 T02120164  RH  074%=      5-min Rain = 0
KAM2 110835Z 16007KT 21/16 A3013 RMK A01 T02120164  RH  074%=      5-min Rain = 0
KAM2 110836Z 16007KT 21/16 A3013 RMK A01 T02120164  RH  074%=      5-min Rain = 0
KAM2 110837Z 16007KT 21/16 A3013 RMK A01 T02120164  RH  074%=      5-min Rain = 0
KAM2 110838Z 16007KT 21/16 A3013 RMK A01 T02120164  RH  074%=      5-min Rain = 0
KAM2 110839Z 15007KT 21/16 A3013 RMK A01 T02120164  RH  074%=      5-min Rain = 0
KAM2 110840Z 15007KT 21/16 A3013 RMK A01 T02120164  RH  074%=      5-min Rain = 0
KAM2 110841Z 15008KT 21/16 A3013 RMK A01 T02120164  RH  074%=      5-min Rain = 0
KAM2 110842Z 15007KT 21/16 A3013 RMK A01 T02120164  RH  074%=      5-min Rain = 0
KAM2 110843Z 15007KT 21/16 A3013 RMK A01 T02130164  RH  074%=      5-min Rain = 0
KAM2 110844Z 15007KT 21/16 A3013 RMK A01 T02130164  RH  074%=      5-min Rain = 0
KAM2 110845Z 15006KT 21/16 A3013 RMK A01 T02130164  RH  073%=      5-min Rain = 0
KAM2 110846Z 15007KT 21/16 A3013 RMK A01 T02140164  RH  073%=      5-min Rain = 0
KAM2 110847Z 15007KT 21/16 A3013 RMK A01 T02140164  RH  073%=      5-min Rain = 0
KAM2 110848Z 15007KT 21/17 A3013 RMK A01 T02140165  RH  073%=      5-min Rain = 0
KAM2 110849Z 15007KT 21/17 A3013 RMK A01 T02140165  RH  073%=      5-min Rain = 0
KAM2 110850Z 15008KT 21/17 A3013 RMK A01 T02140165  RH  074%=      5-min Rain = 0
KAM2 110851Z 15007KT 21/16 A3013 RMK A01 T02130164  RH  074%=      5-min Rain = 0
KAM2 110852Z 15008KT 21/16 A3013 RMK A01 T02130164  RH  074%=      5-min Rain = 0
KAM2 110853Z 15008KT 21/16 A3013 RMK A01 T02130164  RH  074%=      5-min Rain = 0
KAM2 110854Z 15008KT 21/16 A3013 RMK A01 T02120164  RH  074%=      5-min Rain = 0
KAM2 110855Z 15007KT 21/16 A3013 RMK A01 T02130164  RH  074%=      5-min Rain = 0
KAM2 110856Z 16007KT 21/16 A3013 RMK A01 T02130164  RH  074%=      5-min Rain = 0
KAM2 110857Z 16008KT 21/16 A3013 RMK A01 T02130164  RH  074%=      5-min Rain = 0
KAM2 110858Z 16008KT 21/16 A3013 RMK A01 T02130164  RH  074%=      5-min Rain = 0
KAM2 110859Z 16007KT 21/16 A3013 RMK A01 T02130164  RH  073%=      5-min Rain = 0
KAM2 110900Z 17007KT 21/16 A3013 RMK A01 T02130164  RH  073%=      5-min Rain = 0
KAM2 110901Z 17007KT 21/16 A3013 RMK A01 T02120164  RH  074%=      5-min Rain = 0
KAM2 110902Z 17007KT 21/16 A3013 RMK A01 T02120164  RH  074%=      5-min Rain = 0
KAM2 110903Z 17007KT 21/16 A3013 RMK A01 T02120164  RH  074%=      5-min Rain = 0
KAM2 110904Z 17006KT 21/16 A3013 RMK A01 T02120164  RH  074%=      5-min Rain = 0
KAM2 110905Z 17007KT 21/16 A3013 RMK A01 T02110164  RH  074%=      5-min Rain = 0
KAM2 110906Z 17008KT 21/16 A3013 RMK A01 T02110164  RH  074%=      5-min Rain = 0
KAM2 110907Z 17008KT 21/16 A3013 RMK A01 T02110164  RH  074%=      5-min Rain = 0
KAM2 110908Z 17007KT 21/16 A3013 RMK A01 T02110164  RH  075%=      5-min Rain = 0
KAM2 110909Z 17007KT 21/16 A3013 RMK A01 T02100164  RH  075%=      5-min Rain = 0
KAM2 110910Z 17007KT 21/16 A3013 RMK A01 T02100164  RH  075%=      5-min Rain = 0
KAM2 110911Z 17006KT 21/16 A3013 RMK A01 T02100164  RH  075%=      5-min Rain = 0
KAM2 110912Z 18005KT 21/16 A3013 RMK A01 T02100164  RH  075%=      5-min Rain = 0
KAM2 110913Z 17006KT 21/16 A3013 RMK A01 T02090164  RH  075%=      5-min Rain = 0
KAM2 110914Z 17006KT 21/16 A3013 RMK A01 T02080164  RH  076%=      5-min Rain = 0
KAM2 110915Z 17006KT 21/16 A3013 RMK A01 T02080164  RH  076%=      5-min Rain = 0
KAM2 110916Z 17006KT 21/16 A3013 RMK A01 T02070164  RH  076%=      5-min Rain = 0
KAM2 110917Z 17006KT 21/16 A3013 RMK A01 T02070164  RH  076%=      5-min Rain = 0
KAM2 110918Z 17006KT 21/16 A3013 RMK A01 T02070164  RH  076%=      5-min Rain = 0
KAM2 110919Z 17006KT 21/16 A3013 RMK A01 T02070164  RH  076%=      5-min Rain = 0
KAM2 110920Z 17007KT 21/17 A3013 RMK A01 T02070165  RH  076%=      5-min Rain = 0
KAM2 110921Z 17006KT 21/16 A3013 RMK A01 T02070164  RH  076%=      5-min Rain = 0
KAM2 110922Z 16007KT 21/16 A3013 RMK A01 T02070164  RH  076%=      5-min Rain = 0
KAM2 110923Z 16007KT 21/16 A3013 RMK A01 T02070164  RH  076%=      5-min Rain = 0
KAM2 110924Z 17007KT 21/16 A3013 RMK A01 T02070164  RH  076%=      5-min Rain = 0
KAM2 110925Z 17007KT 21/16 A3013 RMK A01 T02070164  RH  076%=      5-min Rain = 0
KAM2 110926Z 17007KT 21/16 A3013 RMK A01 T02070164  RH  076%=      5-min Rain = 0
KAM2 110927Z 17007KT 21/16 A3013 RMK A01 T02070164  RH  076%=      5-min Rain = 0
KAM2 110928Z 17006KT 21/16 A3013 RMK A01 T02070164  RH  076%=      5-min Rain = 0
KAM2 110929Z 17007KT 21/16 A3013 RMK A01 T02070164  RH  076%=      5-min Rain = 0
KAM2 110930Z 17007KT 21/16 A3013 RMK A01 T02070164  RH  076%=      5-min Rain = 0
KAM2 110931Z 17006KT 21/16 A3013 RMK A01 T02070164  RH  076%=      5-min Rain = 0
KAM2 110932Z 17007KT 21/16 A3013 RMK A01 T02070164  RH  076%=      5-min Rain = 0
KAM2 110933Z 17007KT 21/16 A3013 RMK A01 T02070164  RH  076%=      5-min Rain = 0
KAM2 110934Z 17007KT 21/16 A3013 RMK A01 T02060164  RH  076%=      5-min Rain = 0
KAM2 110935Z 17007KT 21/16 A3013 RMK A01 T02060164  RH  076%=      5-min Rain = 0
KAM2 110936Z 17006KT 21/16 A3013 RMK A01 T02070164  RH  076%=      5-min Rain = 0
KAM2 110937Z 17006KT 21/16 A3013 RMK A01 T02070164  RH  076%=      5-min Rain = 0
KAM2 110938Z 17006KT 21/16 A3013 RMK A01 T02060164  RH  077%=      5-min Rain = 0
KAM2 110939Z 17007KT 21/16 A3013 RMK A01 T02060164  RH  077%=      5-min Rain = 0
KAM2 110940Z 17006KT 21/16 A3013 RMK A01 T02060164  RH  077%=      5-min Rain = 0
KAM2 110941Z 17006KT 21/16 A3013 RMK A01 T02060164  RH  077%=      5-min Rain = 0
KAM2 110942Z 17006KT 21/16 A3013 RMK A01 T02050164  RH  077%=      5-min Rain = 0
KAM2 110943Z 17006KT 21/16 A3013 RMK A01 T02050164  RH  077%=      5-min Rain = 0
KAM2 110944Z 17006KT 21/16 A3013 RMK A01 T02050164  RH  077%=      5-min Rain = 0
KAM2 110945Z 17006KT 20/16 A3013 RMK A01 T02040164  RH  078%=      5-min Rain = 0
KAM2 110946Z 17006KT 20/16 A3013 RMK A01 T02030164  RH  078%=      5-min Rain = 0
KAM2 110947Z 18006KT 20/16 A3013 RMK A01 T02030164  RH  078%=      5-min Rain = 0
KAM2 110948Z 18006KT 20/16 A3013 RMK A01 T02030164  RH  078%=      5-min Rain = 0
KAM2 110949Z 18005KT 20/16 A3013 RMK A01 T02030164  RH  078%=      5-min Rain = 0
KAM2 110950Z 18006KT 20/16 A3013 RMK A01 T02020164  RH  079%=      5-min Rain = 0
KAM2 110951Z 18005KT 20/16 A3013 RMK A01 T02020164  RH  079%=      5-min Rain = 0
KAM2 110952Z 18006KT 20/16 A3013 RMK A01 T02010164  RH  079%=      5-min Rain = 0
KAM2 110953Z 18006KT 20/16 A3013 RMK A01 T02010164  RH  079%=      5-min Rain = 0
KAM2 110954Z 18006KT 20/16 A3013 RMK A01 T02010164  RH  079%=      5-min Rain = 0
KAM2 110955Z 18006KT 20/16 A3013 RMK A01 T02010164  RH  079%=      5-min Rain = 0
KAM2 110956Z 18006KT 20/16 A3013 RMK A01 T02010164  RH  079%=      5-min Rain = 0
KAM2 110957Z 18006KT 20/16 A3013 RMK A01 T02000164  RH  079%=      5-min Rain = 0
KAM2 110958Z 18006KT 20/16 A3013 RMK A01 T02000164  RH  079%=      5-min Rain = 0
KAM2 110959Z 18005KT 20/16 A3013 RMK A01 T02000164  RH  080%=      5-min Rain = 0
KAM2 111000Z 18006KT 20/16 A3013 RMK A01 T02000164  RH  080%=      5-min Rain = 0
KAM2 111001Z 18006KT 20/16 A3013 RMK A01 T02000164  RH  080%=      5-min Rain = 0
KAM2 111002Z 18005KT 20/16 A3013 RMK A01 T02000164  RH  080%=      5-min Rain = 0
KAM2 111003Z 18006KT 20/16 A3013 RMK A01 T02000164  RH  080%=      5-min Rain = 0
KAM2 111004Z 17006KT 20/16 A3013 RMK A01 T02000164  RH  080%=      5-min Rain = 0
KAM2 111005Z 17006KT 20/16 A3013 RMK A01 T01990164  RH  080%=      5-min Rain = 0
KAM2 111006Z 17006KT 20/16 A3013 RMK A01 T01990164  RH  080%=      5-min Rain = 0
KAM2 111007Z 17005KT 20/16 A3013 RMK A01 T01980164  RH  080%=      5-min Rain = 0
KAM2 111008Z 16005KT 20/16 A3013 RMK A01 T01980164  RH  081%=      5-min Rain = 0
KAM2 111009Z 16005KT 20/16 A3013 RMK A01 T01970163  RH  081%=      5-min Rain = 0
KAM2 111010Z 17006KT 20/16 A3013 RMK A01 T01970163  RH  081%=      5-min Rain = 0
KAM2 111011Z 17006KT 20/16 A3013 RMK A01 T01960164  RH  081%=      5-min Rain = 0
KAM2 111012Z 17005KT 20/16 A3013 RMK A01 T01950163  RH  082%=      5-min Rain = 0
KAM2 111013Z 17005KT 20/16 A3013 RMK A01 T01950163  RH  082%=      5-min Rain = 0
KAM2 111014Z 17005KT 20/16 A3013 RMK A01 T01950163  RH  082%=      5-min Rain = 0
KAM2 111015Z 17005KT 20/16 A3013 RMK A01 T01950163  RH  082%=      5-min Rain = 0
KAM2 111016Z 17005KT 20/16 A3013 RMK A01 T01950163  RH  082%=      5-min Rain = 0
KAM2 111017Z 17005KT 19/16 A3013 RMK A01 T01940163  RH  082%=      5-min Rain = 0
KAM2 111018Z 17005KT 19/16 A3013 RMK A01 T01940163  RH  082%=      5-min Rain = 0
KAM2 111019Z 17005KT 19/16 A3013 RMK A01 T01930163  RH  082%=      5-min Rain = 0
KAM2 111020Z 17005KT 19/16 A3013 RMK A01 T01930163  RH  083%=      5-min Rain = 0
KAM2 111021Z 17004KT 19/16 A3013 RMK A01 T01930163  RH  083%=      5-min Rain = 0
KAM2 111022Z 17004KT 19/16 A3013 RMK A01 T01920163  RH  083%=      5-min Rain = 0
KAM2 111023Z 17005KT 19/16 A3013 RMK A01 T01920163  RH  083%=      5-min Rain = 0
KAM2 111024Z 17004KT 19/16 A3013 RMK A01 T01920163  RH  083%=      5-min Rain = 0
KAM2 111025Z 17004KT 19/16 A3013 RMK A01 T01920163  RH  083%=      5-min Rain = 0
KAM2 111026Z 17004KT 19/16 A3013 RMK A01 T01920163  RH  083%=      5-min Rain = 0
KAM2 111027Z 17004KT 19/16 A3013 RMK A01 T01920163  RH  083%=      5-min Rain = 0
KAM2 111028Z 16004KT 19/16 A3013 RMK A01 T01910163  RH  083%=      5-min Rain = 0
KAM2 111029Z 16004KT 19/16 A3013 RMK A01 T01910163  RH  084%=      5-min Rain = 0
KAM2 111030Z 16004KT 19/16 A3013 RMK A01 T01910163  RH  084%=      5-min Rain = 0
KAM2 111031Z 16004KT 19/16 A3013 RMK A01 T01910163  RH  084%=      5-min Rain = 0
KAM2 111032Z 17004KT 19/16 A3013 RMK A01 T01910163  RH  084%=      5-min Rain = 0
KAM2 111033Z 17004KT 19/16 A3013 RMK A01 T01910163  RH  084%=      5-min Rain = 0
KAM2 111034Z 17004KT 19/16 A3013 RMK A01 T01910163  RH  084%=      5-min Rain = 0
KAM2 111035Z 17004KT 19/16 A3013 RMK A01 T01900163  RH  084%=      5-min Rain = 0
KAM2 111036Z 17004KT 19/16 A3013 RMK A01 T01900162  RH  084%=      5-min Rain = 0
KAM2 111037Z 17004KT 19/16 A3013 RMK A01 T01900163  RH  084%=      5-min Rain = 0
KAM2 111038Z 17004KT 19/16 A3013 RMK A01 T01890162  RH  084%=      5-min Rain = 0
KAM2 111039Z 18004KT 19/16 A3013 RMK A01 T01900162  RH  084%=      5-min Rain = 0
KAM2 111040Z 18005KT 19/16 A3013 RMK A01 T01900163  RH  085%=      5-min Rain = 0
KAM2 111041Z 18005KT 19/16 A3013 RMK A01 T01900163  RH  085%=      5-min Rain = 0
KAM2 111042Z 18005KT 19/16 A3013 RMK A01 T01890163  RH  085%=      5-min Rain = 0
KAM2 111043Z 18005KT 19/16 A3013 RMK A01 T01890163  RH  085%=      5-min Rain = 0
KAM2 111044Z 18005KT 19/16 A3013 RMK A01 T01890162  RH  085%=      5-min Rain = 0
KAM2 111045Z 18005KT 19/16 A3013 RMK A01 T01890162  RH  084%=      5-min Rain = 0
KAM2 111046Z 18005KT 19/16 A3013 RMK A01 T01890162  RH  084%=      5-min Rain = 0
KAM2 111047Z 18005KT 19/16 A3013 RMK A01 T01890162  RH  085%=      5-min Rain = 0
KAM2 111048Z 18004KT 19/16 A3013 RMK A01 T01880162  RH  085%=      5-min Rain = 0
KAM2 111049Z 18005KT 19/16 A3013 RMK A01 T01870163  RH  085%=      5-min Rain = 0
KAM2 111050Z 18006KT 19/16 A3013 RMK A01 T01870163  RH  086%=      5-min Rain = 0
KAM2 111051Z 17006KT 19/16 A3013 RMK A01 T01870162  RH  086%=      5-min Rain = 0
KAM2 111052Z 17006KT 19/16 A3013 RMK A01 T01870163  RH  086%=      5-min Rain = 0
KAM2 111053Z 17007KT 19/16 A3013 RMK A01 T01870163  RH  086%=      5-min Rain = 0
KAM2 111054Z 17006KT 19/16 A3013 RMK A01 T01860162  RH  086%=      5-min Rain = 0
KAM2 111055Z 18006KT 19/16 A3013 RMK A01 T01870163  RH  086%=      5-min Rain = 0
KAM2 111056Z 18006KT 19/16 A3013 RMK A01 T01860163  RH  086%=      5-min Rain = 0
KAM2 111057Z 17006KT 19/16 A3013 RMK A01 T01860163  RH  086%=      5-min Rain = 0
KAM2 111058Z 17006KT 19/16 A3013 RMK A01 T01860163  RH  086%=      5-min Rain = 0
KAM2 111059Z 18006KT 19/16 A3013 RMK A01 T01860163  RH  086%=      5-min Rain = 0
KAM2 111100Z 18006KT 19/16 A3013 RMK A01 T01860163  RH  086%=      5-min Rain = 0
KAM2 111101Z 18006KT 19/16 A3013 RMK A01 T01860163  RH  086%=      5-min Rain = 0
KAM2 111102Z 18006KT 19/16 A3013 RMK A01 T01860163  RH  086%=      5-min Rain = 0
KAM2 111103Z 18006KT 19/16 A3013 RMK A01 T01860163  RH  087%=      5-min Rain = 0
KAM2 111104Z 18005KT 19/16 A3013 RMK A01 T01860163  RH  087%=      5-min Rain = 0
KAM2 111105Z 18005KT 19/16 A3013 RMK A01 T01860163  RH  087%=      5-min Rain = 0
KAM2 111106Z 18005KT 19/16 A3013 RMK A01 T01860163  RH  087%=      5-min Rain = 0
KAM2 111107Z 18005KT 19/16 A3013 RMK A01 T01860163  RH  087%=      5-min Rain = 0
KAM2 111108Z 17005KT 19/16 A3013 RMK A01 T01860163  RH  087%=      5-min Rain = 0
KAM2 111109Z 18005KT 19/16 A3013 RMK A01 T01850163  RH  087%=      5-min Rain = 0
KAM2 111110Z 18005KT 19/16 A3013 RMK A01 T01850163  RH  087%=      5-min Rain = 0
KAM2 111111Z 18005KT 19/16 A3013 RMK A01 T01850163  RH  087%=      5-min Rain = 0
KAM2 111112Z 18006KT 19/16 A3013 RMK A01 T01850164  RH  087%=      5-min Rain = 0
KAM2 111113Z 18006KT 19/16 A3013 RMK A01 T01850163  RH  087%=      5-min Rain = 0
KAM2 111114Z 18005KT 19/16 A3013 RMK A01 T01850163  RH  087%=      5-min Rain = 0
KAM2 111115Z 18005KT 19/16 A3013 RMK A01 T01850164  RH  087%=      5-min Rain = 0
KAM2 111116Z 19005KT 19/16 A3013 RMK A01 T01850164  RH  087%=      5-min Rain = 0
KAM2 111117Z 19004KT 19/16 A3013 RMK A01 T01850164  RH  087%=      5-min Rain = 0
KAM2 111118Z 19004KT 19/16 A3013 RMK A01 T01850164  RH  088%=      5-min Rain = 0
KAM2 111119Z 18004KT 18/16 A3013 RMK A01 T01840164  RH  088%=      5-min Rain = 0
KAM2 111120Z 19005KT 18/17 A3013 RMK A01 T01840165  RH  089%=      5-min Rain = 0
KAM2 111121Z 19004KT 18/17 A3013 RMK A01 T01830166  RH  089%=      5-min Rain = 0
KAM2 111122Z 19004KT 18/17 A3013 RMK A01 T01830167  RH  090%=      5-min Rain = 0
KAM2 111123Z 19004KT 18/17 A3013 RMK A01 T01820167  RH  091%=      5-min Rain = 0
KAM2 111124Z 18004KT 18/17 A3013 RMK A01 T01820168  RH  091%=      5-min Rain = 0
KAM2 111125Z 18004KT 18/17 A3013 RMK A01 T01820168  RH  092%=      5-min Rain = 0
KAM2 111126Z 18004KT 18/17 A3013 RMK A01 T01810169  RH  092%=      5-min Rain = 0
KAM2 111127Z 19004KT 18/17 A3013 RMK A01 T01810169  RH  093%=      5-min Rain = 0
KAM2 111128Z 18005KT 18/17 A3013 RMK A01 T01800170  RH  093%=      5-min Rain = 0
KAM2 111129Z 18005KT 18/17 A3013 RMK A01 T01810170  RH  094%=      5-min Rain = 0
KAM2 111130Z 18005KT 18/17 A3013 RMK A01 T01800170  RH  094%=      5-min Rain = 0
KAM2 111131Z 19005KT 18/17 A3013 RMK A01 T01800170  RH  093%=      5-min Rain = 0
KAM2 111132Z 19005KT 18/17 A3013 RMK A01 T01800170  RH  093%=      5-min Rain = 0
KAM2 111133Z 19005KT 18/17 A3013 RMK A01 T01800170  RH  094%=      5-min Rain = 0
KAM2 111134Z 19005KT 18/17 A3013 RMK A01 T01810171  RH  094%=      5-min Rain = 0
KAM2 111135Z 19005KT 18/17 A3013 RMK A01 T01800172  RH  095%=      5-min Rain = 0
KAM2 111136Z 19005KT 18/17 A3013 RMK A01 T01800172  RH  095%=      5-min Rain = 0
KAM2 111137Z 18005KT 18/17 A3013 RMK A01 T01800172  RH  095%=      5-min Rain = 0
KAM2 111138Z 19005KT 18/17 A3013 RMK A01 T01800173  RH  095%=      5-min Rain = 0
KAM2 111139Z 18005KT 18/17 A3013 RMK A01 T01800173  RH  095%=      5-min Rain = 0
KAM2 111140Z 18005KT 18/17 A3013 RMK A01 T01800173  RH  095%=      5-min Rain = 0
KAM2 111141Z 18005KT 18/17 A3013 RMK A01 T01810172  RH  094%=      5-min Rain = 0
KAM2 111142Z 18005KT 18/17 A3012 RMK A01 T01810171  RH  094%=      5-min Rain = 0
KAM2 111143Z 18005KT 18/17 A3012 RMK A01 T01810171  RH  094%=      5-min Rain = 0
KAM2 111144Z 19005KT 18/17 A3012 RMK A01 T01810170  RH  093%=      5-min Rain = 0
KAM2 111145Z 18005KT 18/17 A3012 RMK A01 T01820170  RH  093%=      5-min Rain = 0
KAM2 111146Z 18005KT 18/17 A3012 RMK A01 T01820169  RH  093%=      5-min Rain = 0
KAM2 111147Z 19004KT 18/17 A3012 RMK A01 T01820170  RH  093%=      5-min Rain = 0
KAM2 111148Z 18004KT 18/17 A3012 RMK A01 T01820169  RH  092%=      5-min Rain = 0
KAM2 111149Z 18004KT 18/17 A3013 RMK A01 T01820170  RH  093%=      5-min Rain = 0
KAM2 111150Z 18003KT 18/17 A3013 RMK A01 T01810170  RH  093%=      5-min Rain = 0
KAM2 111151Z 18003KT 18/17 A3013 RMK A01 T01810170  RH  093%=      5-min Rain = 0
KAM2 111152Z 19003KT 18/17 A3013 RMK A01 T01810171  RH  093%=      5-min Rain = 0
KAM2 111153Z 18002KT 18/17 A3013 RMK A01 T01810170  RH  093%=      5-min Rain = 0
KAM2 111154Z 19003KT 18/17 A3013 RMK A01 T01810171  RH  094%=      5-min Rain = 0
KAM2 111155Z 19003KT 18/17 A3013 RMK A01 T01800172  RH  095%=      5-min Rain = 0
KAM2 111156Z 18002KT 18/17 A3013 RMK A01 T01810174  RH  096%=      5-min Rain = 0
KAM2 111157Z 19003KT 18/18 A3013 RMK A01 T01810175  RH  097%=      5-min Rain = 0
KAM2 111158Z 19003KT 18/18 A3013 RMK A01 T01810176  RH  097%=      5-min Rain = 0
KAM2 111159Z 18003KT 18/18 A3013 RMK A01 T01800177  RH  098%=      5-min Rain = 0
KAM2 111200Z 18003KT 18/18 A3013 RMK A01 T01800178  RH  098%=      5-min Rain = 0
KAM2 111201Z 18003KT 18/18 A3013 RMK A01 T01800178  RH  098%=      5-min Rain = 0
KAM2 111202Z 18003KT 18/18 A3013 RMK A01 T01800177  RH  098%=      5-min Rain = 0
KAM2 111203Z 18003KT 18/18 A3013 RMK A01 T01800177  RH  098%=      5-min Rain = 0
KAM2 111204Z 18003KT 18/18 A3013 RMK A01 T01800177  RH  098%=      5-min Rain = 0
KAM2 111205Z 18004KT 18/18 A3013 RMK A01 T01800176  RH  097%=      5-min Rain = 0
KAM2 111206Z 18004KT 18/18 A3013 RMK A01 T01800175  RH  096%=      5-min Rain = 0
KAM2 111207Z 18004KT 18/17 A3013 RMK A01 T01810174  RH  096%=      5-min Rain = 0
KAM2 111208Z 18004KT 18/17 A3013 RMK A01 T01810174  RH  096%=      5-min Rain = 0
KAM2 111209Z 18004KT 18/17 A3013 RMK A01 T01810174  RH  096%=      5-min Rain = 0
KAM2 111210Z 18004KT 18/18 A3013 RMK A01 T01810175  RH  096%=      5-min Rain = 0
KAM2 111211Z 19003KT 18/18 A3013 RMK A01 T01810175  RH  096%=      5-min Rain = 0
KAM2 111212Z 19003KT 18/18 A3013 RMK A01 T01810176  RH  097%=      5-min Rain = 0
KAM2 111213Z 19003KT 18/18 A3014 RMK A01 T01810176  RH  097%=      5-min Rain = 0
KAM2 111214Z 19004KT 18/18 A3014 RMK A01 T01820176  RH  096%=      5-min Rain = 0
KAM2 111215Z 20004KT 18/18 A3014 RMK A01 T01820176  RH  096%=      5-min Rain = 0
KAM2 111216Z 20004KT 18/18 A3014 RMK A01 T01830176  RH  095%=      5-min Rain = 0
KAM2 111217Z 20004KT 18/18 A3014 RMK A01 T01840175  RH  094%=      5-min Rain = 0
KAM2 111218Z 20004KT 19/17 A3014 RMK A01 T01850174  RH  094%=      5-min Rain = 0
KAM2 111219Z 20004KT 19/17 A3014 RMK A01 T01850174  RH  093%=      5-min Rain = 0
KAM2 111220Z 20004KT 19/17 A3014 RMK A01 T01860173  RH  092%=      5-min Rain = 0
KAM2 111221Z 19004KT 19/17 A3014 RMK A01 T01870173  RH  091%=      5-min Rain = 0
KAM2 111222Z 19004KT 19/17 A3014 RMK A01 T01880172  RH  091%=      5-min Rain = 0
KAM2 111223Z 19004KT 19/17 A3014 RMK A01 T01880172  RH  090%=      5-min Rain = 0
KAM2 111224Z 19003KT 19/17 A3014 RMK A01 T01890172  RH  090%=      5-min Rain = 0
KAM2 111225Z 19003KT 19/17 A3014 RMK A01 T01900171  RH  089%=      5-min Rain = 0
KAM2 111226Z 19004KT 19/17 A3014 RMK A01 T01900171  RH  089%=      5-min Rain = 0
KAM2 111227Z 19004KT 19/17 A3014 RMK A01 T01910171  RH  088%=      5-min Rain = 0
KAM2 111228Z 18004KT 19/17 A3014 RMK A01 T01920171  RH  088%=      5-min Rain = 0
KAM2 111229Z 18003KT 19/17 A3014 RMK A01 T01920170  RH  087%=      5-min Rain = 0
KAM2 111230Z 18004KT 19/17 A3014 RMK A01 T01930170  RH  087%=      5-min Rain = 0
KAM2 111231Z 18004KT 19/17 A3014 RMK A01 T01940170  RH  086%=      5-min Rain = 0
KAM2 111232Z 19004KT 19/17 A3014 RMK A01 T01940170  RH  086%=      5-min Rain = 0
KAM2 111233Z 19004KT 20/17 A3014 RMK A01 T01950169  RH  085%=      5-min Rain = 0
KAM2 111234Z 18004KT 20/17 A3014 RMK A01 T01960169  RH  084%=      5-min Rain = 0
KAM2 111235Z 18004KT 20/17 A3014 RMK A01 T01970170  RH  084%=      5-min Rain = 0
KAM2 111236Z 19004KT 20/17 A3014 RMK A01 T01980169  RH  083%=      5-min Rain = 0
KAM2 111237Z 19004KT 20/17 A3013 RMK A01 T01990169  RH  083%=      5-min Rain = 0
KAM2 111238Z 18004KT 20/17 A3013 RMK A01 T02000169  RH  083%=      5-min Rain = 0
KAM2 111239Z 18004KT 20/17 A3013 RMK A01 T02000169  RH  082%=      5-min Rain = 0
KAM2 111240Z 18003KT 20/17 A3013 RMK A01 T02010169  RH  082%=      5-min Rain = 0
KAM2 111241Z 18003KT 20/17 A3013 RMK A01 T02020170  RH  082%=      5-min Rain = 0
KAM2 111242Z 19004KT 20/17 A3013 RMK A01 T02020169  RH  081%=      5-min Rain = 0
KAM2 111243Z 18004KT 20/17 A3013 RMK A01 T02030170  RH  081%=      5-min Rain = 0
KAM2 111244Z 17004KT 20/17 A3013 RMK A01 T02040169  RH  080%=      5-min Rain = 0
KAM2 111245Z 17005KT 21/17 A3013 RMK A01 T02050169  RH  080%=      5-min Rain = 0
KAM2 111246Z 17005KT 21/17 A3013 RMK A01 T02050170  RH  080%=      5-min Rain = 0
KAM2 111247Z 17004KT 21/17 A3013 RMK A01 T02060170  RH  080%=      5-min Rain = 0
KAM2 111248Z 16004KT 21/17 A3013 RMK A01 T02070170  RH  079%=      5-min Rain = 0
KAM2 111249Z 17005KT 21/17 A3013 RMK A01 T02080171  RH  079%=      5-min Rain = 0
KAM2 111250Z 16005KT 21/17 A3013 RMK A01 T02080170  RH  079%=      5-min Rain = 0
KAM2 111251Z 17005KT 21/17 A3013 RMK A01 T02090171  RH  078%=      5-min Rain = 0
KAM2 111252Z 17005KT 21/17 A3013 RMK A01 T02100171  RH  078%=      5-min Rain = 0
KAM2 111253Z 17005KT 21/17 A3013 RMK A01 T02110171  RH  078%=      5-min Rain = 0
KAM2 111254Z 17005KT 21/17 A3013 RMK A01 T02120171  RH  077%=      5-min Rain = 0
KAM2 111255Z 17005KT 21/17 A3013 RMK A01 T02130172  RH  077%=      5-min Rain = 0
KAM2 111256Z 17005KT 22/17 A3013 RMK A01 T02150172  RH  077%=      5-min Rain = 0
KAM2 111257Z 17006KT 22/17 A3013 RMK A01 T02160172  RH  076%=      5-min Rain = 0
KAM2 111258Z 17005KT 22/17 A3013 RMK A01 T02170173  RH  076%=      5-min Rain = 0
KAM2 111259Z 18004KT 22/17 A3013 RMK A01 T02190173  RH  075%=      5-min Rain = 0
KAM2 111300Z 17005KT 22/17 A3013 RMK A01 T02200174  RH  075%=      5-min Rain = 0
KAM2 111301Z 17005KT 22/17 A3013 RMK A01 T02210174  RH  074%=      5-min Rain = 0
KAM2 111302Z 17005KT 22/17 A3014 RMK A01 T02230174  RH  074%=      5-min Rain = 0
KAM2 111303Z 19004KT 22/17 A3014 RMK A01 T02240174  RH  073%=      5-min Rain = 0
KAM2 111304Z 19003KT 23/18 A3014 RMK A01 T02250175  RH  073%=      5-min Rain = 0
KAM2 111305Z 19004KT 23/18 A3014 RMK A01 T02270175  RH  072%=      5-min Rain = 0
KAM2 111306Z 19005KT 23/17 A3014 RMK A01 T02280174  RH  072%=      5-min Rain = 0
KAM2 111307Z 19004KT 23/18 A3014 RMK A01 T02300175  RH  071%=      5-min Rain = 0
KAM2 111308Z 20005KT 23/18 A3014 RMK A01 T02310175  RH  071%=      5-min Rain = 0
KAM2 111309Z 19006KT 23/17 A3014 RMK A01 T02330174  RH  069%=      5-min Rain = 0
KAM2 111310Z 20007KT 24/17 A3014 RMK A01 T02350172  RH  068%=      5-min Rain = 0
KAM2 111311Z 20006KT 24/17 A3014 RMK A01 T02370171  RH  066%=      5-min Rain = 0
KAM2 111312Z 20006KT 24/17 A3014 RMK A01 T02380172  RH  067%=      5-min Rain = 0
KAM2 111313Z 19007KT 24/17 A3014 RMK A01 T02390172  RH  066%=      5-min Rain = 0
KAM2 111314Z 20008KT 24/17 A3014 RMK A01 T02410172  RH  065%=      5-min Rain = 0
KAM2 111315Z 20007KT 24/17 A3013 RMK A01 T02410171  RH  065%=      5-min Rain = 0
KAM2 111316Z 20009KT 24/17 A3013 RMK A01 T02420171  RH  065%=      5-min Rain = 0
KAM2 111317Z 20009KT 24/17 A3013 RMK A01 T02430170  RH  064%=      5-min Rain = 0
KAM2 111318Z 20007KT 24/17 A3013 RMK A01 T02430170  RH  064%=      5-min Rain = 0
KAM2 111319Z 20010KT 24/17 A3013 RMK A01 T02440170  RH  063%=      5-min Rain = 0
KAM2 111320Z 20010KT 24/17 A3013 RMK A01 T02440169  RH  063%=      5-min Rain = 0
KAM2 111321Z 21011KT 25/17 A3013 RMK A01 T02450169  RH  063%=      5-min Rain = 0
KAM2 111322Z 21010KT 25/17 A3013 RMK A01 T02450168  RH  062%=      5-min Rain = 0
KAM2 111323Z 20009KT 25/17 A3013 RMK A01 T02450169  RH  062%=      5-min Rain = 0
KAM2 111324Z 20008KT 25/17 A3013 RMK A01 T02460169  RH  062%=      5-min Rain = 0
KAM2 111325Z 20009KT 25/17 A3014 RMK A01 T02470169  RH  062%=      5-min Rain = 0
KAM2 111326Z 19011KT 25/17 A3014 RMK A01 T02480169  RH  061%=      5-min Rain = 0
KAM2 111327Z 20011KT 25/17 A3014 RMK A01 T02480168  RH  061%=      5-min Rain = 0
KAM2 111328Z 21012KT 25/17 A3014 RMK A01 T02480167  RH  061%=      5-min Rain = 0
KAM2 111329Z 21011KT 25/17 A3014 RMK A01 T02480167  RH  061%=      5-min Rain = 0
KAM2 111330Z 21009KT 25/17 A3014 RMK A01 T02480168  RH  061%=      5-min Rain = 0
KAM2 111331Z 19009KT 25/17 A3014 RMK A01 T02490169  RH  061%=      5-min Rain = 0
KAM2 111332Z 20010KT 25/17 A3014 RMK A01 T02500169  RH  061%=      5-min Rain = 0
KAM2 111333Z 20008KT 25/17 A3014 RMK A01 T02510169  RH  060%=      5-min Rain = 0
KAM2 111334Z 21009KT 25/17 A3014 RMK A01 T02510169  RH  060%=      5-min Rain = 0
KAM2 111335Z 20009KT 25/17 A3014 RMK A01 T02520169  RH  060%=      5-min Rain = 0
KAM2 111336Z 20012KT 25/17 A3014 RMK A01 T02520168  RH  059%=      5-min Rain = 0
KAM2 111337Z 21009KT 25/17 A3014 RMK A01 T02520167  RH  059%=      5-min Rain = 0
KAM2 111338Z 20009KT 25/17 A3014 RMK A01 T02520168  RH  059%=      5-min Rain = 0
KAM2 111339Z 21007KT 25/17 A3014 RMK A01 T02530168  RH  059%=      5-min Rain = 0
KAM2 111340Z 21008KT 26/17 A3014 RMK A01 T02550169  RH  059%=      5-min Rain = 0
KAM2 111341Z 20008KT 26/17 A3014 RMK A01 T02550169  RH  059%=      5-min Rain = 0
KAM2 111342Z 22009KT 26/17 A3014 RMK A01 T02560169  RH  058%=      5-min Rain = 0
KAM2 111343Z 21009KT 26/17 A3014 RMK A01 T02560166  RH  058%=      5-min Rain = 0
KAM2 111344Z 21010KT 26/17 A3014 RMK A01 T02560165  RH  057%=      5-min Rain = 0
KAM2 111345Z 20012KT 26/17 A3014 RMK A01 T02560165  RH  057%=      5-min Rain = 0
KAM2 111346Z 20012KT 26/16 A3014 RMK A01 T02570164  RH  057%=      5-min Rain = 0
KAM2 111347Z 21008KT 26/17 A3014 RMK A01 T02560165  RH  057%=      5-min Rain = 0
KAM2 111348Z 22008KT 26/17 A3014 RMK A01 T02570166  RH  057%=      5-min Rain = 0
KAM2 111349Z 22008G14KT 26/17 A3014 RMK A01 T02580165  RH  057%=      5-min Rain = 0
KAM2 111350Z 22012KT 26/16 A3014 RMK A01 T02580163  RH  056%=      5-min Rain = 0
KAM2 111351Z 22011KT 26/16 A3014 RMK A01 T02580163  RH  056%=      5-min Rain = 0
KAM2 111352Z 22012KT 26/16 A3014 RMK A01 T02580162  RH  055%=      5-min Rain = 0
KAM2 111353Z 22010KT 26/16 A3014 RMK A01 T02570162  RH  055%=      5-min Rain = 0
KAM2 111354Z 22007KT 26/16 A3014 RMK A01 T02570163  RH  056%=      5-min Rain = 0
KAM2 111355Z 23010KT 26/16 A3014 RMK A01 T02580163  RH  056%=      5-min Rain = 0
KAM2 111356Z 22011KT 26/16 A3014 RMK A01 T02580163  RH  056%=      5-min Rain = 0
KAM2 111357Z 22009KT 26/16 A3014 RMK A01 T02580162  RH  055%=      5-min Rain = 0
KAM2 111358Z 21008KT 26/16 A3014 RMK A01 T02580163  RH  056%=      5-min Rain = 0
KAM2 111359Z 21012KT 26/16 A3014 RMK A01 T02590163  RH  055%=      5-min Rain = 0
KAM2 111400Z 21012KT 26/16 A3014 RMK A01 T02600162  RH  055%=      5-min Rain = 0
KAM2 111401Z 21012KT 26/16 A3014 RMK A01 T02610161  RH  054%=      5-min Rain = 0
KAM2 111402Z 22010KT 26/16 A3014 RMK A01 T02610161  RH  054%=      5-min Rain = 0
KAM2 111403Z 21011KT 26/16 A3014 RMK A01 T02610162  RH  054%=      5-min Rain = 0
KAM2 111404Z 21009KT 26/16 A3014 RMK A01 T02620163  RH  055%=      5-min Rain = 0
KAM2 111405Z 21012KT 26/16 A3014 RMK A01 T02620161  RH  054%=      5-min Rain = 0
KAM2 111406Z 22012G17KT 26/16 A3014 RMK A01 T02610161  RH  054%=      5-min Rain = 0
KAM2 111407Z 21013KT 26/16 A3014 RMK A01 T02610159  RH  053%=      5-min Rain = 0
KAM2 111408Z 21015KT 26/16 A3014 RMK A01 T02600159  RH  054%=      5-min Rain = 0
KAM2 111409Z 21011KT 26/16 A3014 RMK A01 T02600160  RH  054%=      5-min Rain = 0
KAM2 111410Z 21009KT 26/16 A3014 RMK A01 T02590161  RH  055%=      5-min Rain = 0
KAM2 111411Z 21009KT 26/16 A3014 RMK A01 T02610161  RH  054%=      5-min Rain = 0
KAM2 111412Z 20011KT 26/16 A3014 RMK A01 T02620161  RH  054%=      5-min Rain = 0
KAM2 111413Z 20012KT 26/16 A3014 RMK A01 T02630160  RH  053%=      5-min Rain = 0
KAM2 111414Z 21012KT 26/16 A3014 RMK A01 T02640157  RH  052%=      5-min Rain = 0
KAM2 111415Z 22012KT 26/16 A3014 RMK A01 T02640159  RH  052%=      5-min Rain = 0
KAM2 111416Z 21014KT 26/16 A3014 RMK A01 T02640157  RH  052%=      5-min Rain = 0
KAM2 111417Z 21008KT 27/16 A3014 RMK A01 T02650158  RH  052%=      5-min Rain = 0
KAM2 111418Z 21010KT 27/16 A3014 RMK A01 T02660160  RH  052%=      5-min Rain = 0
KAM2 111419Z 21011KT 27/16 A3014 RMK A01 T02670158  RH  051%=      5-min Rain = 0
KAM2 111420Z 21011KT 27/16 A3014 RMK A01 T02660159  RH  052%=      5-min Rain = 0
KAM2 111421Z 22008KT 27/16 A3014 RMK A01 T02660160  RH  052%=      5-min Rain = 0
KAM2 111422Z 21009KT 27/16 A3014 RMK A01 T02670163  RH  053%=      5-min Rain = 0
KAM2 111423Z 21011KT 27/16 A3014 RMK A01 T02700162  RH  052%=      5-min Rain = 0
KAM2 111424Z 20011KT 27/16 A3014 RMK A01 T02700158  RH  050%=      5-min Rain = 0
KAM2 111425Z 21012KT 27/16 A3014 RMK A01 T02690158  RH  050%=      5-min Rain = 0
KAM2 111426Z 20015KT 27/16 A3014 RMK A01 T02690156  RH  050%=      5-min Rain = 0
KAM2 111427Z 20014KT 27/16 A3014 RMK A01 T02680156  RH  050%=      5-min Rain = 0
KAM2 111428Z 20014KT 27/16 A3014 RMK A01 T02680155  RH  050%=      5-min Rain = 0
KAM2 111429Z 20014KT 27/15 A3014 RMK A01 T02680154  RH  049%=      5-min Rain = 0
KAM2 111430Z 20015KT 27/15 A3014 RMK A01 T02680154  RH  050%=      5-min Rain = 0
KAM2 111431Z 21014KT 27/15 A3014 RMK A01 T02680154  RH  050%=      5-min Rain = 0
KAM2 111432Z 20012KT 27/16 A3014 RMK A01 T02690155  RH  050%=      5-min Rain = 0
KAM2 111433Z 21012KT 27/16 A3014 RMK A01 T02700155  RH  049%=      5-min Rain = 0
KAM2 111434Z 20014KT 27/15 A3014 RMK A01 T02720154  RH  048%=      5-min Rain = 0
KAM2 111435Z 20014KT 27/15 A3014 RMK A01 T02720153  RH  048%=      5-min Rain = 0
KAM2 111436Z 21013KT 27/15 A3014 RMK A01 T02720154  RH  048%=      5-min Rain = 0
KAM2 111437Z 21013KT 27/15 A3014 RMK A01 T02720153  RH  048%=      5-min Rain = 0
KAM2 111438Z 21012KT 27/15 A3014 RMK A01 T02720153  RH  048%=      5-min Rain = 0
KAM2 111439Z 20013KT 27/15 A3014 RMK A01 T02730154  RH  048%=      5-min Rain = 0
KAM2 111440Z 21010KT 27/15 A3014 RMK A01 T02730154  RH  048%=      5-min Rain = 0
KAM2 111441Z 22010KT 27/16 A3015 RMK A01 T02740157  RH  049%=      5-min Rain = 0
KAM2 111442Z 21011KT 28/16 A3015 RMK A01 T02760156  RH  048%=      5-min Rain = 0
KAM2 111443Z 22012KT 28/15 A3015 RMK A01 T02760154  RH  047%=      5-min Rain = 0
KAM2 111444Z 22012KT 28/16 A3015 RMK A01 T02750155  RH  048%=      5-min Rain = 0
KAM2 111445Z 20010KT 27/16 A3015 RMK A01 T02740157  RH  049%=      5-min Rain = 0
KAM2 111446Z 20011KT 28/16 A3015 RMK A01 T02760157  RH  048%=      5-min Rain = 0
KAM2 111447Z 20013KT 28/16 A3015 RMK A01 T02770157  RH  048%=      5-min Rain = 0
KAM2 111448Z 20011KT 28/16 A3015 RMK A01 T02770155  RH  047%=      5-min Rain = 0
KAM2 111449Z 20014KT 28/15 A3015 RMK A01 T02770154  RH  047%=      5-min Rain = 0
KAM2 111450Z 21013KT 28/16 A3015 RMK A01 T02770156  RH  047%=      5-min Rain = 0
KAM2 111451Z 20011KT 28/16 A3015 RMK A01 T02770156  RH  047%=      5-min Rain = 0
KAM2 111452Z 22012KT 28/16 A3015 RMK A01 T02780155  RH  047%=      5-min Rain = 0
KAM2 111453Z 20011KT 28/15 A3015 RMK A01 T02780154  RH  047%=      5-min Rain = 0
KAM2 111454Z 21010KT 28/16 A3015 RMK A01 T02780155  RH  047%=      5-min Rain = 0
KAM2 111455Z 20011KT 28/16 A3015 RMK A01 T02790155  RH  047%=      5-min Rain = 0
KAM2 111456Z 20009KT 28/15 A3015 RMK A01 T02790154  RH  047%=      5-min Rain = 0
KAM2 111457Z 20010KT 28/15 A3015 RMK A01 T02790154  RH  047%=      5-min Rain = 0
KAM2 111458Z 19009KT 28/16 A3015 RMK A01 T02800157  RH  047%=      5-min Rain = 0
KAM2 111459Z 20011KT 28/16 A3015 RMK A01 T02820157  RH  047%=      5-min Rain = 0
KAM2 111500Z 20009KT 28/16 A3015 RMK A01 T02830156  RH  046%=      5-min Rain = 0
KAM2 111501Z 20011KT 28/16 A3015 RMK A01 T02830156  RH  046%=      5-min Rain = 0
KAM2 111502Z 20013KT 28/15 A3015 RMK A01 T02840154  RH  045%=      5-min Rain = 0
KAM2 111503Z 20013KT 28/15 A3015 RMK A01 T02820153  RH  045%=      5-min Rain = 0
KAM2 111504Z 21011KT 28/16 A3015 RMK A01 T02810155  RH  046%=      5-min Rain = 0
KAM2 111505Z 20010KT 28/16 A3015 RMK A01 T02820155  RH  046%=      5-min Rain = 0
KAM2 111506Z 19011KT 28/16 A3015 RMK A01 T02820155  RH  046%=      5-min Rain = 0
KAM2 111507Z 19010KT 28/16 A3015 RMK A01 T02820155  RH  046%=      5-min Rain = 0
KAM2 111508Z 20009G14KT 28/16 A3015 RMK A01 T02830157  RH  046%=      5-min Rain = 0
KAM2 111509Z 22007G12KT 29/16 A3015 RMK A01 T02850157  RH  046%=      5-min Rain = 0
KAM2 111510Z 21009KT 29/16 A3015 RMK A01 T02870158  RH  046%=      5-min Rain = 0
KAM2 111511Z 19010KT 29/16 A3014 RMK A01 T02880158  RH  045%=      5-min Rain = 0
KAM2 111512Z 21009G14KT 29/16 A3014 RMK A01 T02880159  RH  045%=      5-min Rain = 0
KAM2 111513Z 20012KT 29/16 A3014 RMK A01 T02880158  RH  045%=      5-min Rain = 0
KAM2 111514Z 20008KT 29/16 A3014 RMK A01 T02880159  RH  046%=      5-min Rain = 0
KAM2 111515Z 22010KT 29/16 A3014 RMK A01 T02880158  RH  045%=      5-min Rain = 0
KAM2 111516Z 22010KT 29/16 A3014 RMK A01 T02870158  RH  046%=      5-min Rain = 0
KAM2 111517Z 19009KT 29/16 A3014 RMK A01 T02870158  RH  046%=      5-min Rain = 0
KAM2 111518Z 20010KT 29/16 A3014 RMK A01 T02880157  RH  045%=      5-min Rain = 0
KAM2 111519Z 20010KT 29/16 A3014 RMK A01 T02880158  RH  045%=      5-min Rain = 0
KAM2 111520Z 19008KT 29/16 A3014 RMK A01 T02880159  RH  046%=      5-min Rain = 0
KAM2 111521Z 20012G18KT 29/16 A3014 RMK A01 T02890160  RH  045%=      5-min Rain = 0
KAM2 111522Z 21012KT 29/16 A3014 RMK A01 T02900157  RH  045%=      5-min Rain = 0
KAM2 111523Z 20013KT 29/16 A3014 RMK A01 T02890157  RH  045%=      5-min Rain = 0
KAM2 111524Z 19015KT 29/16 A3014 RMK A01 T02890156  RH  045%=      5-min Rain = 0
KAM2 111525Z 19015KT 29/16 A3014 RMK A01 T02870156  RH  045%=      5-min Rain = 0
KAM2 111526Z 19013KT 29/16 A3014 RMK A01 T02860156  RH  045%=      5-min Rain = 0
KAM2 111527Z 20012KT 29/16 A3014 RMK A01 T02860156  RH  045%=      5-min Rain = 0
KAM2 111528Z 21010KT 29/16 A3014 RMK A01 T02860158  RH  046%=      5-min Rain = 0
KAM2 111529Z 22010KT 29/16 A3014 RMK A01 T02880157  RH  045%=      5-min Rain = 0
KAM2 111530Z 20010KT 29/16 A3014 RMK A01 T02880158  RH  045%=      5-min Rain = 0
KAM2 111531Z 19014KT 29/16 A3014 RMK A01 T02870159  RH  046%=      5-min Rain = 0
KAM2 111532Z 20010KT 29/16 A3014 RMK A01 T02890157  RH  045%=      5-min Rain = 0
KAM2 111533Z 19009KT 29/16 A3014 RMK A01 T02870158  RH  046%=      5-min Rain = 0
KAM2 111534Z 19009KT 29/16 A3014 RMK A01 T02870159  RH  046%=      5-min Rain = 0
KAM2 111535Z 20011G16KT 29/16 A3014 RMK A01 T02890160  RH  046%=      5-min Rain = 0
KAM2 111536Z 20012KT 29/16 A3014 RMK A01 T02900160  RH  045%=      5-min Rain = 0
KAM2 111537Z 20011KT 29/16 A3014 RMK A01 T02900159  RH  045%=      5-min Rain = 0
KAM2 111538Z 20010G15KT 29/16 A3014 RMK A01 T02890160  RH  045%=      5-min Rain = 0
KAM2 111539Z 20012KT 29/16 A3014 RMK A01 T02900161  RH  045%=      5-min Rain = 0
KAM2 111540Z 20015KT 29/16 A3013 RMK A01 T02920162  RH  045%=      5-min Rain = 0
KAM2 111541Z 20014KT 29/16 A3013 RMK A01 T02940160  RH  044%=      5-min Rain = 0
KAM2 111542Z 20014KT 29/16 A3014 RMK A01 T02910159  RH  045%=      5-min Rain = 0
KAM2 111543Z 21011KT 29/16 A3014 RMK A01 T02900159  RH  045%=      5-min Rain = 0
KAM2 111544Z 20013KT 29/16 A3014 RMK A01 T02890160  RH  046%=      5-min Rain = 0
KAM2 111545Z 20015KT 29/16 A3014 RMK A01 T02890160  RH  045%=      5-min Rain = 0
KAM2 111546Z 20015KT 29/16 A3014 RMK A01 T02890158  RH  045%=      5-min Rain = 0
KAM2 111547Z 20013KT 29/16 A3014 RMK A01 T02890159  RH  045%=      5-min Rain = 0
KAM2 111548Z 20013KT 29/16 A3014 RMK A01 T02880160  RH  046%=      5-min Rain = 0
KAM2 111549Z 19012KT 29/16 A3014 RMK A01 T02880160  RH  046%=      5-min Rain = 0
KAM2 111550Z 20010G16KT 29/16 A3014 RMK A01 T02910162  RH  046%=      5-min Rain = 0
KAM2 111551Z 20008KT 29/16 A3014 RMK A01 T02940163  RH  045%=      5-min Rain = 0
KAM2 111552Z 21014KT 30/16 A3014 RMK A01 T02950163  RH  045%=      5-min Rain = 0
KAM2 111553Z 21013KT 30/16 A3014 RMK A01 T02950160  RH  044%=      5-min Rain = 0
KAM2 111554Z 21013KT 29/16 A3014 RMK A01 T02930160  RH  044%=      5-min Rain = 0
KAM2 111555Z 21013KT 29/16 A3014 RMK A01 T02920158  RH  044%=      5-min Rain = 0
KAM2 111556Z 22011KT 29/16 A3014 RMK A01 T02890158  RH  045%=      5-min Rain = 0
KAM2 111557Z 21013KT 29/16 A3014 RMK A01 T02890160  RH  046%=      5-min Rain = 0
KAM2 111558Z 21018KT 29/16 A3013 RMK A01 T02900160  RH  045%=      5-min Rain = 0
KAM2 111559Z 21016KT 29/16 A3014 RMK A01 T02910159  RH  045%=      5-min Rain = 0
KAM2 111600Z 21012KT 29/16 A3014 RMK A01 T02910158  RH  045%=      5-min Rain = 0
KAM2 111601Z 20011KT 29/16 A3014 RMK A01 T02900159  RH  045%=      5-min Rain = 0
KAM2 111602Z 22012KT 29/16 A3014 RMK A01 T02920161  RH  045%=      5-min Rain = 0
KAM2 111603Z 22012KT 29/16 A3014 RMK A01 T02930160  RH  045%=      5-min Rain = 0
KAM2 111604Z 23011KT 29/16 A3014 RMK A01 T02930161  RH  045%=      5-min Rain = 0
KAM2 111605Z 23013KT 29/16 A3014 RMK A01 T02930160  RH  045%=      5-min Rain = 0
KAM2 111606Z 22012KT 29/16 A3014 RMK A01 T02930159  RH  044%=      5-min Rain = 0
KAM2 111607Z 21013KT 29/16 A3014 RMK A01 T02920162  RH  045%=      5-min Rain = 0
KAM2 111608Z 20012KT 29/16 A3014 RMK A01 T02920160  RH  045%=      5-min Rain = 0
KAM2 111609Z 21013KT 29/16 A3014 RMK A01 T02930160  RH  045%=      5-min Rain = 0
KAM2 111610Z 21010KT 29/16 A3014 RMK A01 T02930159  RH  044%=      5-min Rain = 0
KAM2 111611Z 21011KT 29/16 A3014 RMK A01 T02920160  RH  045%=      5-min Rain = 0
KAM2 111612Z 21010G15KT 29/16 A3014 RMK A01 T02930163  RH  045%=      5-min Rain = 0
KAM2 111613Z 21013KT 30/16 A3014 RMK A01 T02970161  RH  044%=      5-min Rain = 0
KAM2 111614Z 22010KT 30/16 A3014 RMK A01 T02980162  RH  044%=      5-min Rain = 0
KAM2 111615Z 19009KT 30/16 A3014 RMK A01 T02980164  RH  044%=      5-min Rain = 0
KAM2 111616Z 20012KT 30/16 A3013 RMK A01 T03020164  RH  043%=      5-min Rain = 0
KAM2 111617Z 20013KT 30/16 A3014 RMK A01 T03030162  RH  043%=      5-min Rain = 0
KAM2 111618Z 20011KT 30/16 A3014 RMK A01 T03000160  RH  043%=      5-min Rain = 0
KAM2 111619Z 19012KT 30/16 A3014 RMK A01 T02980160  RH  043%=      5-min Rain = 0
KAM2 111620Z 19009KT 30/16 A3014 RMK A01 T02960160  RH  044%=      5-min Rain = 0
KAM2 111621Z 20007KT 30/16 A3014 RMK A01 T02960162  RH  044%=      5-min Rain = 0
KAM2 111622Z 21009KT 30/17 A3014 RMK A01 T02990165  RH  044%=      5-min Rain = 0
KAM2 111623Z 22012KT 30/16 A3014 RMK A01 T03010162  RH  043%=      5-min Rain = 0
KAM2 111624Z 21011G16KT 30/16 A3013 RMK A01 T03010160  RH  043%=      5-min Rain = 0
KAM2 111625Z 21014KT 30/16 A3013 RMK A01 T02980160  RH  043%=      5-min Rain = 0
KAM2 111626Z 23011KT 30/16 A3013 RMK A01 T02990159  RH  043%=      5-min Rain = 0
KAM2 111627Z 20013G18KT 30/16 A3013 RMK A01 T03000161  RH  043%=      5-min Rain = 0
KAM2 111628Z 20012KT 30/16 A3013 RMK A01 T03030160  RH  042%=      5-min Rain = 0
KAM2 111629Z 20013KT 30/16 A3014 RMK A01 T03030160  RH  042%=      5-min Rain = 0
KAM2 111630Z 19012KT 30/16 A3014 RMK A01 T03030161  RH  042%=      5-min Rain = 0
KAM2 111631Z 20012KT 30/16 A3013 RMK A01 T03010158  RH  042%=      5-min Rain = 0
KAM2 111632Z 21010G16KT 30/16 A3013 RMK A01 T02980159  RH  043%=      5-min Rain = 0
KAM2 111633Z 23009G14KT 30/16 A3013 RMK A01 T02980158  RH  043%=      5-min Rain = 0
KAM2 111634Z 21010KT 30/16 A3013 RMK A01 T02980159  RH  043%=      5-min Rain = 0
KAM2 111635Z 19009KT 30/16 A3013 RMK A01 T03000161  RH  043%=      5-min Rain = 0
KAM2 111636Z 21012KT 30/16 A3013 RMK A01 T03020160  RH  042%=      5-min Rain = 0
KAM2 111637Z 21010KT 30/16 A3013 RMK A01 T03020159  RH  042%=      5-min Rain = 0
KAM2 111638Z 19010KT 30/16 A3013 RMK A01 T03030164  RH  043%=      5-min Rain = 0
KAM2 111639Z 20008KT 31/16 A3013 RMK A01 T03070163  RH  042%=      5-min Rain = 0
KAM2 111640Z 21010KT 31/16 A3013 RMK A01 T03080162  RH  041%=      5-min Rain = 0
KAM2 111641Z 23010G15KT 31/16 A3013 RMK A01 T03080161  RH  041%=      5-min Rain = 0
KAM2 111642Z 22013KT 31/16 A3013 RMK A01 T03060160  RH  041%=      5-min Rain = 0
KAM2 111643Z 20014KT 31/16 A3013 RMK A01 T03050161  RH  042%=      5-min Rain = 0
KAM2 111644Z 22011KT 30/16 A3013 RMK A01 T03030160  RH  042%=      5-min Rain = 0
KAM2 111645Z 20009G14KT 30/16 A3013 RMK A01 T03010160  RH  043%=      5-min Rain = 0
KAM2 111646Z 19014KT 30/16 A3013 RMK A01 T03010162  RH  043%=      5-min Rain = 0
KAM2 111647Z 18012KT 30/16 A3013 RMK A01 T03030161  RH  042%=      5-min Rain = 0
KAM2 111648Z 17009KT 30/16 A3013 RMK A01 T03040162  RH  042%=      5-min Rain = 0
KAM2 111649Z 17008KT 31/17 A3013 RMK A01 T03070165  RH  042%=      5-min Rain = 0
KAM2 111650Z 19008KT 31/16 A3013 RMK A01 T03080164  RH  042%=      5-min Rain = 0
KAM2 111651Z 18010KT 31/17 A3013 RMK A01 T03080165  RH  042%=      5-min Rain = 0
KAM2 111652Z 20011KT 31/17 A3013 RMK A01 T03090165  RH  042%=      5-min Rain = 0
KAM2 111653Z 20015KT 31/16 A3013 RMK A01 T03090161  RH  041%=      5-min Rain = 0
KAM2 111654Z 20013KT 31/16 A3013 RMK A01 T03060161  RH  042%=      5-min Rain = 0
KAM2 111655Z 22008KT 31/17 A3013 RMK A01 T03060165  RH  043%=      5-min Rain = 0
KAM2 111656Z 22011KT 31/16 A3013 RMK A01 T03090161  RH  041%=      5-min Rain = 0
KAM2 111657Z 20013KT 31/16 A3013 RMK A01 T03070161  RH  041%=      5-min Rain = 0
KAM2 111658Z 20014KT 31/16 A3013 RMK A01 T03070157  RH  040%=      5-min Rain = 0
KAM2 111659Z 21012KT 31/15 A3013 RMK A01 T03060154  RH  040%=      5-min Rain = 0
KAM2 111700Z 19012KT 31/16 A3013 RMK A01 T03050156  RH  041%=      5-min Rain = 0
KAM2 111701Z 19013KT 31/16 A3013 RMK A01 T03080158  RH  040%=      5-min Rain = 0
KAM2 111702Z 19012KT 31/16 A3013 RMK A01 T03090158  RH  040%=      5-min Rain = 0
KAM2 111703Z 18011KT 31/16 A3013 RMK A01 T03110157  RH  039%=      5-min Rain = 0
KAM2 111704Z 19015KT 31/16 A3013 RMK A01 T03120157  RH  039%=      5-min Rain = 0
KAM2 111705Z 19013KT 31/15 A3013 RMK A01 T03120154  RH  039%=      5-min Rain = 0
KAM2 111706Z 19011KT 31/15 A3013 RMK A01 T03100154  RH  039%=      5-min Rain = 0
KAM2 111707Z 19008KT 31/15 A3013 RMK A01 T03100153  RH  039%=      5-min Rain = 0
KAM2 111708Z 19007KT 31/15 A3013 RMK A01 T03090154  RH  039%=      5-min Rain = 0
KAM2 111709Z 17010KT 31/16 A3013 RMK A01 T03100156  RH  040%=      5-min Rain = 0
KAM2 111710Z 19012KT 31/16 A3012 RMK A01 T03130155  RH  038%=      5-min Rain = 0
KAM2 111711Z 19016KT 32/15 A3013 RMK A01 T03160153  RH  037%=      5-min Rain = 0
KAM2 111712Z 20015KT 32/15 A3013 RMK A01 T03150149  RH  037%=      5-min Rain = 0
KAM2 111713Z 19011KT 31/15 A3013 RMK A01 T03110151  RH  038%=      5-min Rain = 0
KAM2 111714Z 19008KT 31/15 A3013 RMK A01 T03100152  RH  038%=      5-min Rain = 0
KAM2 111715Z 19009KT 31/15 A3013 RMK A01 T03090154  RH  039%=      5-min Rain = 0
KAM2 111716Z 20012KT 31/16 A3013 RMK A01 T03100155  RH  039%=      5-min Rain = 0
KAM2 111717Z 19010G15KT 31/15 A3013 RMK A01 T03110154  RH  039%=      5-min Rain = 0
KAM2 111718Z 17010KT 31/16 A3013 RMK A01 T03120155  RH  039%=      5-min Rain = 0
KAM2 111719Z 17012KT 31/15 A3013 RMK A01 T03120152  RH  038%=      5-min Rain = 0
KAM2 111720Z 16009KT 31/15 A3012 RMK A01 T03120154  RH  038%=      5-min Rain = 0
KAM2 111721Z 17013KT 32/16 A3012 RMK A01 T03150156  RH  038%=      5-min Rain = 0
KAM2 111722Z 18012KT 32/15 A3012 RMK A01 T03170154  RH  037%=      5-min Rain = 0
KAM2 111723Z 17009KT 32/15 A3012 RMK A01 T03160154  RH  038%=      5-min Rain = 0
KAM2 111724Z 15005KT 31/15 A3012 RMK A01 T03140153  RH  038%=      5-min Rain = 0
KAM2 111725Z 17006KT 31/16 A3012 RMK A01 T03140155  RH  038%=      5-min Rain = 0
KAM2 111726Z 17010KT 32/16 A3012 RMK A01 T03180156  RH  038%=      5-min Rain = 0
KAM2 111727Z 17012KT 32/16 A3012 RMK A01 T03220156  RH  037%=      5-min Rain = 0
KAM2 111728Z 19013KT 32/15 A3012 RMK A01 T03220153  RH  036%=      5-min Rain = 0
KAM2 111729Z 20009KT 32/15 A3012 RMK A01 T03190150  RH  036%=      5-min Rain = 0
KAM2 111730Z 19006KT 32/15 A3012 RMK A01 T03160152  RH  037%=      5-min Rain = 0
KAM2 111731Z 18011G16KT 32/15 A3012 RMK A01 T03160153  RH  037%=      5-min Rain = 0
KAM2 111732Z 17013KT 32/15 A3012 RMK A01 T03180153  RH  037%=      5-min Rain = 0
KAM2 111733Z 17009G14KT 32/15 A3012 RMK A01 T03180153  RH  037%=      5-min Rain = 0
KAM2 111734Z 20006KT 32/15 A3012 RMK A01 T03170153  RH  037%=      5-min Rain = 0
KAM2 111735Z 20010KT 32/15 A3012 RMK A01 T03160154  RH  037%=      5-min Rain = 0
KAM2 111736Z 19011KT 32/15 A3012 RMK A01 T03160151  RH  037%=      5-min Rain = 0
KAM2 111737Z 19009KT 32/15 A3012 RMK A01 T03160150  RH  037%=      5-min Rain = 0
KAM2 111738Z 18011KT 32/15 A3012 RMK A01 T03150151  RH  037%=      5-min Rain = 0
KAM2 111739Z 19014KT 32/15 A3012 RMK A01 T03170153  RH  037%=      5-min Rain = 0
KAM2 111740Z 19016KT 32/15 A3012 RMK A01 T03180152  RH  037%=      5-min Rain = 0
KAM2 111741Z 20013KT 32/15 A3012 RMK A01 T03160150  RH  037%=      5-min Rain = 0
KAM2 111742Z 20013KT 32/15 A3012 RMK A01 T03150148  RH  036%=      5-min Rain = 0
KAM2 111743Z 20014G19KT 32/15 A3012 RMK A01 T03150149  RH  037%=      5-min Rain = 0
KAM2 111744Z 19016KT 32/15 A3012 RMK A01 T03160148  RH  036%=      5-min Rain = 0
KAM2 111745Z 20012KT 32/15 A3012 RMK A01 T03150148  RH  036%=      5-min Rain = 0
KAM2 111746Z 20009KT 31/15 A3012 RMK A01 T03140149  RH  037%=      5-min Rain = 0
KAM2 111747Z 19012G17KT 32/15 A3012 RMK A01 T03170150  RH  037%=      5-min Rain = 0
KAM2 111748Z 18014G19KT 32/15 A3012 RMK A01 T03200149  RH  035%=      5-min Rain = 0
KAM2 111749Z 18010G15KT 32/15 A3012 RMK A01 T03230149  RH  035%=      5-min Rain = 0
KAM2 111750Z 20011G19KT 32/15 A3012 RMK A01 T03240148  RH  035%=      5-min Rain = 0
KAM2 111751Z 20010G18KT 32/15 A3012 RMK A01 T03230149  RH  035%=      5-min Rain = 0
KAM2 111752Z 20016KT 32/15 A3011 RMK A01 T03220145  RH  034%=      5-min Rain = 0
KAM2 111753Z 20013KT 32/15 A3011 RMK A01 T03230145  RH  034%=      5-min Rain = 0
KAM2 111754Z 21015KT 32/14 A3011 RMK A01 T03240142  RH  033%=      5-min Rain = 0
KAM2 111755Z 19014KT 32/14 A3012 RMK A01 T03210140  RH  033%=      5-min Rain = 0
KAM2 111756Z 19013KT 32/14 A3012 RMK A01 T03180141  RH  034%=      5-min Rain = 0
KAM2 111757Z 18010G15KT 32/14 A3012 RMK A01 T03180142  RH  034%=      5-min Rain = 0
KAM2 111758Z 17013KT 32/14 A3011 RMK A01 T03190144  RH  035%=      5-min Rain = 0
KAM2 111759Z 16014KT 32/14 A3011 RMK A01 T03210144  RH  034%=      5-min Rain = 0
KAM2 111800Z 17013KT 32/14 A3011 RMK A01 T03220143  RH  034%=      5-min Rain = 0
KAM2 111801Z 16008G13KT 32/15 A3011 RMK A01 T03230145  RH  034%=      5-min Rain = 0
KAM2 111802Z 16011KT 32/14 A3011 RMK A01 T03230144  RH  034%=      5-min Rain = 0
KAM2 111803Z 16011KT 32/14 A3011 RMK A01 T03230144  RH  034%=      5-min Rain = 0
KAM2 111804Z 18010KT 32/15 A3011 RMK A01 T03230146  RH  034%=      5-min Rain = 0
KAM2 111805Z 20010G15KT 33/15 A3011 RMK A01 T03260147  RH  034%=      5-min Rain = 0
KAM2 111806Z 19012KT 33/15 A3011 RMK A01 T03270146  RH  034%=      5-min Rain = 0
KAM2 111807Z 18009KT 33/15 A3011 RMK A01 T03250145  RH  034%=      5-min Rain = 0
KAM2 111808Z 17014G19KT 33/15 A3011 RMK A01 T03250146  RH  034%=      5-min Rain = 0
KAM2 111809Z 17017KT 33/14 A3011 RMK A01 T03270144  RH  033%=      5-min Rain = 0
KAM2 111810Z 17015G20KT 33/14 A3011 RMK A01 T03270144  RH  033%=      5-min Rain = 0
KAM2 111811Z 18015KT 33/14 A3011 RMK A01 T03250141  RH  033%=      5-min Rain = 0
KAM2 111812Z 17012KT 32/14 A3011 RMK A01 T03210139  RH  033%=      5-min Rain = 0
KAM2 111813Z 18016KT 32/14 A3011 RMK A01 T03180140  RH  034%=      5-min Rain = 0
KAM2 111814Z 15014KT 32/14 A3011 RMK A01 T03210141  RH  034%=      5-min Rain = 0
KAM2 111815Z 15017KT 32/14 A3011 RMK A01 T03230139  RH  033%=      5-min Rain = 0
KAM2 111816Z 17015KT 33/14 A3011 RMK A01 T03250137  RH  032%=      5-min Rain = 0
KAM2 111817Z 18014KT 33/14 A3011 RMK A01 T03280140  RH  032%=      5-min Rain = 0
KAM2 111818Z 18015KT 33/14 A3011 RMK A01 T03290139  RH  032%=      5-min Rain = 0
KAM2 111819Z 17014KT 33/14 A3011 RMK A01 T03290140  RH  032%=      5-min Rain = 0
KAM2 111820Z 18014KT 33/14 A3011 RMK A01 T03300138  RH  031%=      5-min Rain = 0
KAM2 111821Z 16017KT 33/14 A301 RMK A01 T03280139  RH  032%=      5-min Rain = 0
KAM2 111822Z 15018KT 33/13 A301 RMK A01 T03260134  RH  031%=      5-min Rain = 0
KAM2 111823Z 14016KT 33/14 A301 RMK A01 T03250138  RH  032%=      5-min Rain = 0
KAM2 111824Z 14013KT 33/14 A301 RMK A01 T03270142  RH  033%=      5-min Rain = 0
KAM2 111825Z 17014G21KT 33/15 A301 RMK A01 T03310145  RH  033%=      5-min Rain = 0
KAM2 111826Z 18017KT 33/14 A3011 RMK A01 T03340142  RH  031%=      5-min Rain = 0
KAM2 111827Z 18013G18KT 33/14 A3011 RMK A01 T03300138  RH  031%=      5-min Rain = 0
KAM2 111828Z 17016G21KT 33/14 A301 RMK A01 T03260137  RH  032%=      5-min Rain = 0
KAM2 111829Z 18015KT 32/14 A301 RMK A01 T03240136  RH  032%=      5-min Rain = 0
KAM2 111830Z 18017G22KT 32/14 A301 RMK A01 T03240137  RH  032%=      5-min Rain = 0
KAM2 111831Z 18017KT 32/14 A301 RMK A01 T03240138  RH  032%=      5-min Rain = 0
KAM2 111832Z 16013KT 32/14 A301 RMK A01 T03240139  RH  033%=      5-min Rain = 0
KAM2 111833Z 17015KT 33/14 A301 RMK A01 T03250139  RH  033%=      5-min Rain = 0
KAM2 111834Z 17013KT 32/14 A301 RMK A01 T03230139  RH  033%=      5-min Rain = 0
KAM2 111835Z 16011KT 32/14 A301 RMK A01 T03240139  RH  033%=      5-min Rain = 0
KAM2 111836Z 17018G27KT 33/14 A301 RMK A01 T03270136  RH  032%=      5-min Rain = 0
KAM2 111837Z 18021KT 33/13 A301 RMK A01 T03290132  RH  030%=      5-min Rain = 0
KAM2 111838Z 18016KT 33/13 A301 RMK A01 T03290133  RH  030%=      5-min Rain = 0
KAM2 111839Z 17013KT 33/13 A301 RMK A01 T03270133  RH  031%=      5-min Rain = 0
KAM2 111840Z 16016KT 33/14 A301 RMK A01 T03280136  RH  031%=      5-min Rain = 0
KAM2 111841Z 16014KT 33/13 A301 RMK A01 T03300132  RH  030%=      5-min Rain = 0
KAM2 111842Z 17012KT 33/13 A301 RMK A01 T03300132  RH  030%=      5-min Rain = 0
KAM2 111843Z 16017G22KT 33/13 A301 RMK A01 T03300134  RH  031%=      5-min Rain = 0
KAM2 111844Z 17017KT 33/14 A301 RMK A01 T03330135  RH  030%=      5-min Rain = 0
KAM2 111845Z 18018KT 33/13 A301 RMK A01 T03340133  RH  030%=      5-min Rain = 0
KAM2 111846Z 18015KT 33/13 A301 RMK A01 T03320132  RH  030%=      5-min Rain = 0
KAM2 111847Z 17017KT 33/13 A301 RMK A01 T03320130  RH  029%=      5-min Rain = 0
KAM2 111848Z 15012KT 33/13 A301 RMK A01 T03310129  RH  029%=      5-min Rain = 0
KAM2 111849Z 17014KT 33/13 A301 RMK A01 T03310130  RH  030%=      5-min Rain = 0
KAM2 111850Z 18018G24KT 33/13 A301 RMK A01 T03310134  RH  030%=      5-min Rain = 0
KAM2 111851Z 18017KT 33/13 A301 RMK A01 T03300133  RH  030%=      5-min Rain = 0
KAM2 111852Z 19017G22KT 33/14 A301 RMK A01 T03290135  RH  031%=      5-min Rain = 0
KAM2 111853Z 19014KT 33/13 A301 RMK A01 T03280131  RH  030%=      5-min Rain = 0
KAM2 111854Z 18014KT 33/13 A301 RMK A01 T03280134  RH  031%=      5-min Rain = 0
KAM2 111855Z 19012KT 33/13 A301 RMK A01 T03320132  RH  030%=      5-min Rain = 0
KAM2 111856Z 19009G14KT 33/13 A3009 RMK A01 T03310134  RH  030%=      5-min Rain = 0
KAM2 111857Z 18010KT 33/13 A3009 RMK A01 T03340134  RH  030%=      5-min Rain = 0
KAM2 111858Z 18011KT 33/13 A3009 RMK A01 T03340133  RH  030%=      5-min Rain = 0
KAM2 111859Z 16011KT 33/13 A3009 RMK A01 T03340133  RH  030%=      5-min Rain = 0
KAM2 111900Z 16013KT 34/14 A3009 RMK A01 T03370135  RH  029%=      5-min Rain = 0
KAM2 111901Z 17011KT 34/13 A3009 RMK A01 T03380130  RH  028%=      5-min Rain = 0
KAM2 111902Z 16010KT 34/13 A3009 RMK A01 T03370132  RH  029%=      5-min Rain = 0
KAM2 111903Z 16019KT 34/13 A3009 RMK A01 T03370131  RH  029%=      5-min Rain = 0
KAM2 111904Z 17020KT 34/13 A3009 RMK A01 T03380131  RH  029%=      5-min Rain = 0
KAM2 111905Z 18016KT 34/13 A3009 RMK A01 T03350131  RH  029%=      5-min Rain = 0
KAM2 111906Z 18015KT 33/13 A3009 RMK A01 T03330133  RH  030%=      5-min Rain = 0
KAM2 111907Z 20011KT 33/14 A3009 RMK A01 T03330135  RH  030%=      5-min Rain = 0
KAM2 111908Z 20011KT 33/14 A3009 RMK A01 T03340135  RH  030%=      5-min Rain = 0
KAM2 111909Z 18012KT 34/14 A3009 RMK A01 T03360135  RH  030%=      5-min Rain = 0
KAM2 111910Z 15012G19KT 34/14 A3009 RMK A01 T03360136  RH  030%=      5-min Rain = 0
KAM2 111911Z 15020KT 34/14 A3009 RMK A01 T03370135  RH  030%=      5-min Rain = 0
KAM2 111912Z 16019KT 34/13 A3009 RMK A01 T03350133  RH  029%=      5-min Rain = 0
KAM2 111913Z 16019KT 33/13 A3009 RMK A01 T03270129  RH  030%=      5-min Rain = 0
KAM2 111914Z 15012G17KT 32/13 A3009 RMK A01 T03210132  RH  032%=      5-min Rain = 0
KAM2 111915Z 16012KT 32/14 A3009 RMK A01 T03230135  RH  032%=      5-min Rain = 0
KAM2 111916Z 19011G19KT 33/14 A3009 RMK A01 T03310137  RH  031%=      5-min Rain = 0
KAM2 111917Z 19019G26KT 33/14 A3008 RMK A01 T03330135  RH  030%=      5-min Rain = 0
KAM2 111918Z 19019KT 33/13 A3008 RMK A01 T03330133  RH  030%=      5-min Rain = 0
KAM2 111919Z 18016G23KT 33/14 A3009 RMK A01 T03340136  RH  030%=      5-min Rain = 0
KAM2 111920Z 19019KT 34/14 A3008 RMK A01 T03350135  RH  030%=      5-min Rain = 0
KAM2 111921Z 18016KT 34/13 A3008 RMK A01 T03350133  RH  030%=      5-min Rain = 0
KAM2 111922Z 18013G18KT 33/14 A3008 RMK A01 T03340135  RH  030%=      5-min Rain = 0
KAM2 111923Z 18018G23KT 34/13 A3008 RMK A01 T03350134  RH  030%=      5-min Rain = 0
KAM2 111924Z 17013KT 33/13 A3008 RMK A01 T03340134  RH  030%=      5-min Rain = 0
KAM2 111925Z 19009KT 33/14 A3008 RMK A01 T03330135  RH  030%=      5-min Rain = 0
KAM2 111926Z 17012KT 33/14 A3008 RMK A01 T03340139  RH  031%=      5-min Rain = 0
KAM2 111927Z 16012KT 34/14 A3008 RMK A01 T03380136  RH  030%=      5-min Rain = 0
KAM2 111928Z 16017KT 34/14 A3008 RMK A01 T03370135  RH  030%=      5-min Rain = 0
KAM2 111929Z 18011G16KT 34/14 A3008 RMK A01 T03360136  RH  030%=      5-min Rain = 0
KAM2 111930Z 17011KT 34/14 A3008 RMK A01 T03370137  RH  030%=      5-min Rain = 0
KAM2 111931Z 16012KT 34/14 A3007 RMK A01 T03380135  RH  029%=      5-min Rain = 0
KAM2 111932Z 17015G21KT 34/13 A3007 RMK A01 T03390134  RH  029%=      5-min Rain = 0
KAM2 111933Z 19015KT 34/14 A3007 RMK A01 T03410138  RH  029%=      5-min Rain = 0
KAM2 111934Z 19016KT 35/14 A3007 RMK A01 T03450135  RH  028%=      5-min Rain = 0
KAM2 111935Z 17014KT 35/14 A3007 RMK A01 T03460136  RH  028%=      5-min Rain = 0
KAM2 111936Z 15019KT 35/14 A3007 RMK A01 T03460136  RH  028%=      5-min Rain = 0
KAM2 111937Z 14015KT 34/13 A3007 RMK A01 T03420132  RH  028%=      5-min Rain = 0
KAM2 111938Z 15015KT 34/13 A3007 RMK A01 T03350132  RH  029%=      5-min Rain = 0
KAM2 111939Z 13010G15KT 33/13 A3007 RMK A01 T03340134  RH  030%=      5-min Rain = 0
KAM2 111940Z 15012G17KT 33/14 A3007 RMK A01 T03330136  RH  030%=      5-min Rain = 0
KAM2 111941Z 16014KT 33/13 A3007 RMK A01 T03320132  RH  030%=      5-min Rain = 0
KAM2 111942Z 15014KT 33/14 A3007 RMK A01 T03330137  RH  031%=      5-min Rain = 0
KAM2 111943Z 18017G23KT 34/14 A3007 RMK A01 T03370136  RH  030%=      5-min Rain = 0
KAM2 111944Z 19017G24KT 34/14 A3007 RMK A01 T03400135  RH  029%=      5-min Rain = 0
KAM2 111945Z 19019KT 34/13 A3007 RMK A01 T03410131  RH  028%=      5-min Rain = 0
KAM2 111946Z 20015G21KT 34/13 A3007 RMK A01 T03380131  RH  029%=      5-min Rain = 0
KAM2 111947Z 19020KT 34/14 A3006 RMK A01 T03380135  RH  029%=      5-min Rain = 0
KAM2 111948Z 20019KT 34/13 A3007 RMK A01 T03390133  RH  029%=      5-min Rain = 0
KAM2 111949Z 21018KT 34/13 A3006 RMK A01 T03390131  RH  028%=      5-min Rain = 0
KAM2 111950Z 20013KT 34/13 A3006 RMK A01 T03360128  RH  028%=      5-min Rain = 0
KAM2 111951Z 20014G19KT 34/13 A3006 RMK A01 T03360132  RH  029%=      5-min Rain = 0
KAM2 111952Z 19017KT 34/13 A3006 RMK A01 T03370127  RH  028%=      5-min Rain = 0
KAM2 111953Z 19010KT 34/13 A3006 RMK A01 T03360130  RH  029%=      5-min Rain = 0
KAM2 111954Z 18010KT 34/13 A3006 RMK A01 T03370129  RH  028%=      5-min Rain = 0
KAM2 111955Z 18013G18KT 34/14 A3006 RMK A01 T03400135  RH  029%=      5-min Rain = 0
KAM2 111956Z 19017G23KT 34/14 A3006 RMK A01 T03440136  RH  029%=      5-min Rain = 0
KAM2 111957Z 20016KT 35/14 A3006 RMK A01 T03450137  RH  029%=      5-min Rain = 0
KAM2 111958Z 19014KT 35/14 A3006 RMK A01 T03450136  RH  028%=      5-min Rain = 0
KAM2 111959Z 20014KT 34/14 A3006 RMK A01 T03430136  RH  029%=      5-min Rain = 0
KAM2 112000Z 20018KT 34/14 A3006 RMK A01 T03410137  RH  029%=      5-min Rain = 0
KAM2 112001Z 18018G24KT 34/14 A3006 RMK A01 T03410138  RH  029%=      5-min Rain = 0
KAM2 112002Z 17015KT 34/14 A3006 RMK A01 T03400136  RH  029%=      5-min Rain = 0
KAM2 112003Z 15013KT 34/14 A3006 RMK A01 T03390136  RH  030%=      5-min Rain = 0
KAM2 112004Z 16014KT 34/14 A3006 RMK A01 T03390136  RH  029%=      5-min Rain = 0
KAM2 112005Z 18019G24KT 34/14 A3006 RMK A01 T03370137  RH  030%=      5-min Rain = 0
KAM2 112006Z 18017KT 33/14 A3006 RMK A01 T03320138  RH  031%=      5-min Rain = 0
KAM2 112007Z 17013KT 33/14 A3006 RMK A01 T03310140  RH  032%=      5-min Rain = 0
KAM2 112008Z 18014G19KT 34/14 A3006 RMK A01 T03360142  RH  031%=      5-min Rain = 0
KAM2 112009Z 17014KT 34/14 A3006 RMK A01 T03360137  RH  030%=      5-min Rain = 0
KAM2 112010Z 17015KT 34/14 A3006 RMK A01 T03350137  RH  030%=      5-min Rain = 0
KAM2 112011Z 16021KT 33/14 A3005 RMK A01 T03340137  RH  030%=      5-min Rain = 0
KAM2 112012Z 16018G25KT 33/13 A3005 RMK A01 T03300134  RH  030%=      5-min Rain = 0
KAM2 112013Z 16019G26KT 33/13 A3005 RMK A01 T03280133  RH  031%=      5-min Rain = 0
KAM2 112014Z 16022KT 33/14 A3005 RMK A01 T03300135  RH  031%=      5-min Rain = 0
KAM2 112015Z 16020KT 33/14 A3005 RMK A01 T03340138  RH  031%=      5-min Rain = 0
KAM2 112016Z 18015KT 34/14 A3005 RMK A01 T03350137  RH  030%=      5-min Rain = 0
KAM2 112017Z 17014KT 33/14 A3005 RMK A01 T03330138  RH  031%=      5-min Rain = 0
KAM2 112018Z 17015KT 33/14 A3005 RMK A01 T03330141  RH  031%=      5-min Rain = 0
KAM2 112019Z 17017KT 34/14 A3005 RMK A01 T03380142  RH  031%=      5-min Rain = 0
KAM2 112020Z 17018G23KT 33/14 A3005 RMK A01 T03340137  RH  030%=      5-min Rain = 0
KAM2 112021Z 18014KT 33/14 A3005 RMK A01 T03330140  RH  031%=      5-min Rain = 0
KAM2 112022Z 18017KT 34/14 A3005 RMK A01 T03370138  RH  030%=      5-min Rain = 0
KAM2 112023Z 18016KT 34/14 A3005 RMK A01 T03370139  RH  030%=      5-min Rain = 0
KAM2 112024Z 17013KT 34/14 A3005 RMK A01 T03370140  RH  030%=      5-min Rain = 0
KAM2 112025Z 18015G21KT 34/14 A3005 RMK A01 T03400143  RH  031%=      5-min Rain = 0
KAM2 112026Z 18020KT 34/14 A3005 RMK A01 T03430142  RH  030%=      5-min Rain = 0
KAM2 112027Z 18018G25KT 34/14 A3005 RMK A01 T03430140  RH  030%=      5-min Rain = 0
KAM2 112028Z 18014KT 34/14 A3005 RMK A01 T03420143  RH  030%=      5-min Rain = 0
KAM2 112029Z 17013KT 34/14 A3005 RMK A01 T03440144  RH  030%=      5-min Rain = 0
KAM2 112030Z 17017G22KT 35/14 A3005 RMK A01 T03450140  RH  029%=      5-min Rain = 0
KAM2 112031Z 19016KT 34/14 A3005 RMK A01 T03440142  RH  030%=      5-min Rain = 0
KAM2 112032Z 19015G20KT 34/14 A3005 RMK A01 T03440142  RH  030%=      5-min Rain = 0
KAM2 112033Z 20012G17KT 34/14 A3005 RMK A01 T03440142  RH  030%=      5-min Rain = 0
KAM2 112034Z 19014G19KT 35/14 A3004 RMK A01 T03450142  RH  030%=      5-min Rain = 0
KAM2 112035Z 20014G19KT 35/14 A3004 RMK A01 T03450139  RH  029%=      5-min Rain = 0
KAM2 112036Z 20021KT 34/14 A3004 RMK A01 T03420140  RH  030%=      5-min Rain = 0
KAM2 112037Z 18021G26KT 34/14 A3004 RMK A01 T03400141  RH  030%=      5-min Rain = 0
KAM2 112038Z 17019KT 34/14 A3004 RMK A01 T03390140  RH  030%=      5-min Rain = 0
KAM2 112039Z 18014G19KT 34/14 A3005 RMK A01 T03380140  RH  030%=      5-min Rain = 0
KAM2 112040Z 16015KT 34/14 A3004 RMK A01 T03390141  RH  030%=      5-min Rain = 0
KAM2 112041Z 15016G21KT 34/14 A3004 RMK A01 T03410141  RH  030%=      5-min Rain = 0
KAM2 112042Z 14014KT 34/14 A3004 RMK A01 T03420138  RH  029%=      5-min Rain = 0
KAM2 112043Z 16015KT 34/14 A3004 RMK A01 T03410139  RH  030%=      5-min Rain = 0
KAM2 112044Z 18019KT 34/14 A3004 RMK A01 T03410140  RH  030%=      5-min Rain = 0
KAM2 112045Z 19019KT 34/14 A3004 RMK A01 T03410144  RH  031%=      5-min Rain = 0
KAM2 112046Z 18017KT 34/14 A3004 RMK A01 T03410142  RH  030%=      5-min Rain = 0
KAM2 112047Z 17016KT 34/14 A3004 RMK A01 T03370142  RH  031%=      5-min Rain = 0
KAM2 112048Z 18017KT 34/14 A3004 RMK A01 T03350140  RH  031%=      5-min Rain = 0
KAM2 112049Z 18015G20KT 33/14 A3004 RMK A01 T03340140  RH  031%=      5-min Rain = 0
KAM2 112050Z 17018G23KT 34/14 A3004 RMK A01 T03350142  RH  031%=      5-min Rain = 0
KAM2 112051Z 16017KT 34/14 A3004 RMK A01 T03370139  RH  030%=      5-min Rain = 0
KAM2 112052Z 17015G21KT 34/14 A3004 RMK A01 T03370141  RH  031%=      5-min Rain = 0
KAM2 112053Z 17016KT 34/14 A3004 RMK A01 T03390139  RH  030%=      5-min Rain = 0
KAM2 112054Z 18018G24KT 34/14 A3004 RMK A01 T03400141  RH  030%=      5-min Rain = 0
KAM2 112055Z 18020G25KT 34/14 A3003 RMK A01 T03420142  RH  030%=      5-min Rain = 0
KAM2 112056Z 17019KT 34/14 A3004 RMK A01 T03410141  RH  030%=      5-min Rain = 0
KAM2 112057Z 17017KT 34/14 A3004 RMK A01 T03400142  RH  030%=      5-min Rain = 0
KAM2 112058Z 18014G19KT 34/14 A3004 RMK A01 T03410143  RH  031%=      5-min Rain = 0
KAM2 112059Z 17016KT 34/14 A3004 RMK A01 T03420141  RH  030%=      5-min Rain = 0
KAM2 112100Z 19014G19KT 34/14 A3003 RMK A01 T03410141  RH  030%=      5-min Rain = 0
KAM2 112101Z 18017KT 34/14 A3003 RMK A01 T03410140  RH  030%=      5-min Rain = 0
KAM2 112102Z 18013KT 34/14 A3004 RMK A01 T03400141  RH  030%=      5-min Rain = 0
KAM2 112103Z 18014G20KT 34/14 A3003 RMK A01 T03380142  RH  031%=      5-min Rain = 0
KAM2 112104Z 18021KT 34/14 A3003 RMK A01 T03350142  RH  031%=      5-min Rain = 0
KAM2 112105Z 17019G25KT 34/14 A3003 RMK A01 T03350139  RH  031%=      5-min Rain = 0
KAM2 112106Z 18015G20KT 34/14 A3004 RMK A01 T03360141  RH  031%=      5-min Rain = 0
KAM2 112107Z 17014KT 34/14 A3003 RMK A01 T03380139  RH  030%=      5-min Rain = 0
KAM2 112108Z 16016KT 34/14 A3003 RMK A01 T03370138  RH  030%=      5-min Rain = 0
KAM2 112109Z 15018G24KT 34/14 A3003 RMK A01 T03370138  RH  030%=      5-min Rain = 0
KAM2 112110Z 16016KT 34/14 A3003 RMK A01 T03390137  RH  030%=      5-min Rain = 0
KAM2 112111Z 15020KT 34/14 A3003 RMK A01 T03420137  RH  029%=      5-min Rain = 0
KAM2 112112Z 16020G25KT 34/14 A3003 RMK A01 T03420137  RH  029%=      5-min Rain = 0
KAM2 112113Z 16020KT 34/14 A3003 RMK A01 T03420135  RH  029%=      5-min Rain = 0
KAM2 112114Z 16013KT 34/14 A3003 RMK A01 T03420136  RH  029%=      5-min Rain = 0
KAM2 112115Z 16013G19KT 34/14 A3003 RMK A01 T03430136  RH  029%=      5-min Rain = 0
KAM2 112116Z 16012G20KT 34/14 A3003 RMK A01 T03400135  RH  029%=      5-min Rain = 0
KAM2 112117Z 17014G20KT 34/14 A3003 RMK A01 T03370135  RH  030%=      5-min Rain = 0
KAM2 112118Z 17015KT 34/14 A3003 RMK A01 T03370137  RH  030%=      5-min Rain = 0
KAM2 112119Z 17016G21KT 34/14 A3003 RMK A01 T03420139  RH  030%=      5-min Rain = 0
KAM2 112120Z 18017KT 35/14 A3003 RMK A01 T03470139  RH  029%=      5-min Rain = 0
KAM2 112121Z 18015KT 35/14 A3003 RMK A01 T03470139  RH  029%=      5-min Rain = 0
KAM2 112122Z 19014KT 35/14 A3003 RMK A01 T03470137  RH  028%=      5-min Rain = 0
KAM2 112123Z 19017G22KT 35/14 A3003 RMK A01 T03470139  RH  029%=      5-min Rain = 0
KAM2 112124Z 19019G27KT 35/14 A3003 RMK A01 T03480138  RH  028%=      5-min Rain = 0
KAM2 112125Z 19022KT 35/13 A3003 RMK A01 T03460134  RH  028%=      5-min Rain = 0
KAM2 112126Z 18019KT 34/13 A3003 RMK A01 T03430134  RH  028%=      5-min Rain = 0
KAM2 112127Z 17014G20KT 34/13 A3003 RMK A01 T03410134  RH  029%=      5-min Rain = 0
KAM2 112128Z 18015KT 34/14 A3003 RMK A01 T03410136  RH  029%=      5-min Rain = 0
KAM2 112129Z 19017G22KT 34/14 A3002 RMK A01 T03430136  RH  029%=      5-min Rain = 0
KAM2 112130Z 18016G21KT 34/14 A3003 RMK A01 T03440136  RH  029%=      5-min Rain = 0
KAM2 112131Z 17017KT 34/14 A3002 RMK A01 T03440137  RH  029%=      5-min Rain = 0
KAM2 112132Z 18015KT 34/13 A3002 RMK A01 T03440133  RH  028%=      5-min Rain = 0
KAM2 112133Z 16016KT 34/14 A3002 RMK A01 T03420135  RH  029%=      5-min Rain = 0
KAM2 112134Z 17017G23KT 34/13 A3002 RMK A01 T03420133  RH  028%=      5-min Rain = 0
KAM2 112135Z 17019KT 34/13 A3002 RMK A01 T03430134  RH  028%=      5-min Rain = 0
KAM2 112136Z 18018KT 34/14 A3002 RMK A01 T03420135  RH  029%=      5-min Rain = 0
KAM2 112137Z 19017KT 34/14 A3002 RMK A01 T03410138  RH  029%=      5-min Rain = 0
KAM2 112138Z 19020G26KT 34/14 A3002 RMK A01 T03420135  RH  029%=      5-min Rain = 0
KAM2 112139Z 19014KT 34/13 A3002 RMK A01 T03400133  RH  029%=      5-min Rain = 0
KAM2 112140Z 20015KT 34/13 A3002 RMK A01 T03350133  RH  029%=      5-min Rain = 0
KAM2 112141Z 19015KT 33/13 A3002 RMK A01 T03320132  RH  030%=      5-min Rain = 0
KAM2 112142Z 19013G19KT 33/13 A3002 RMK A01 T03310131  RH  030%=      5-min Rain = 0
KAM2 112143Z 19013G18KT 33/14 A3002 RMK A01 T03340135  RH  030%=      5-min Rain = 0
KAM2 112144Z 18013KT 34/14 A3002 RMK A01 T03380136  RH  030%=      5-min Rain = 0
KAM2 112145Z 17019KT 34/14 A3002 RMK A01 T03420139  RH  029%=      5-min Rain = 0
KAM2 112146Z 17017G22KT 34/14 A3002 RMK A01 T03440136  RH  028%=      5-min Rain = 0
KAM2 112147Z 17016G21KT 34/14 A3002 RMK A01 T03430135  RH  028%=      5-min Rain = 0
KAM2 112148Z 17018KT 34/13 A3002 RMK A01 T03430133  RH  028%=      5-min Rain = 0
KAM2 112149Z 17018KT 34/13 A3002 RMK A01 T03400134  RH  029%=      5-min Rain = 0
KAM2 112150Z 18017G25KT 34/14 A3002 RMK A01 T03390138  RH  030%=      5-min Rain = 0
KAM2 112151Z 18018KT 34/14 A3002 RMK A01 T03410138  RH  029%=      5-min Rain = 0
KAM2 112152Z 19020KT 34/14 A3002 RMK A01 T03420138  RH  029%=      5-min Rain = 0
KAM2 112153Z 18016G21KT 34/14 A3002 RMK A01 T03420136  RH  029%=      5-min Rain = 0
KAM2 112154Z 19016KT 34/14 A3002 RMK A01 T03410138  RH  029%=      5-min Rain = 0
KAM2 112155Z 19015KT 34/14 A3002 RMK A01 T03410141  RH  030%=      5-min Rain = 0
KAM2 112156Z 19017G22KT 34/14 A3002 RMK A01 T03430142  RH  030%=      5-min Rain = 0
KAM2 112157Z 19018G24KT 34/14 A3002 RMK A01 T03430137  RH  029%=      5-min Rain = 0
KAM2 112158Z 18011G17KT 34/14 A3002 RMK A01 T03380135  RH  029%=      5-min Rain = 0
KAM2 112159Z 17012KT 34/14 A3001 RMK A01 T03380138  RH  030%=      5-min Rain = 0
KAM2 112200Z 18013KT 34/14 A3001 RMK A01 T03380136  RH  030%=      5-min Rain = 0
KAM2 112201Z 18019G25KT 34/14 A3001 RMK A01 T03360138  RH  030%=      5-min Rain = 0
KAM2 112202Z 19021KT 34/14 A3001 RMK A01 T03370139  RH  030%=      5-min Rain = 0
KAM2 112203Z 19017KT 34/14 A3001 RMK A01 T03390141  RH  030%=      5-min Rain = 0
KAM2 112204Z 19016KT 34/14 A3001 RMK A01 T03400140  RH  030%=      5-min Rain = 0
KAM2 112205Z 18015KT 34/14 A3002 RMK A01 T03360138  RH  030%=      5-min Rain = 0
KAM2 112206Z 18014KT 33/14 A3002 RMK A01 T03340140  RH  031%=      5-min Rain = 0
KAM2 112207Z 16015KT 33/14 A3001 RMK A01 T03330137  RH  030%=      5-min Rain = 0
KAM2 112208Z 16013KT 33/14 A3001 RMK A01 T03320137  RH  031%=      5-min Rain = 0
KAM2 112209Z 16012G18KT 33/14 A3001 RMK A01 T03310137  RH  031%=      5-min Rain = 0
KAM2 112210Z 16017KT 34/14 A3001 RMK A01 T03350140  RH  031%=      5-min Rain = 0
KAM2 112211Z 18017KT 34/14 A3001 RMK A01 T03390141  RH  030%=      5-min Rain = 0
KAM2 112212Z 18015KT 34/14 A3001 RMK A01 T03410144  RH  031%=      5-min Rain = 0
KAM2 112213Z 19016KT 34/15 A3001 RMK A01 T03420145  RH  031%=      5-min Rain = 0
KAM2 112214Z 19016G24KT 34/15 A3001 RMK A01 T03410146  RH  031%=      5-min Rain = 0
KAM2 112215Z 18014KT 34/15 A3001 RMK A01 T03390145  RH  031%=      5-min Rain = 0
KAM2 112216Z 19016KT 33/14 A3001 RMK A01 T03340142  RH  032%=      5-min Rain = 0
KAM2 112217Z 19015G21KT 33/14 A3001 RMK A01 T03290141  RH  032%=      5-min Rain = 0
KAM2 112218Z 18017G22KT 33/14 A3001 RMK A01 T03270141  RH  033%=      5-min Rain = 0
KAM2 112219Z 18017KT 33/14 A3001 RMK A01 T03250139  RH  033%=      5-min Rain = 0
KAM2 112220Z 18018KT 32/14 A3001 RMK A01 T03230139  RH  033%=      5-min Rain = 0
KAM2 112221Z 18015G22KT 32/14 A3001 RMK A01 T03220139  RH  033%=      5-min Rain = 0
KAM2 112222Z 19016KT 32/14 A3001 RMK A01 T03230141  RH  033%=      5-min Rain = 0
KAM2 112223Z 19015KT 33/14 A3001 RMK A01 T03270143  RH  033%=      5-min Rain = 0
KAM2 112224Z 19010KT 33/14 A3001 RMK A01 T03310142  RH  032%=      5-min Rain = 0
KAM2 112225Z 18014KT 33/14 A3001 RMK A01 T03320144  RH  032%=      5-min Rain = 0
KAM2 112226Z 18011KT 33/14 A3001 RMK A01 T03290141  RH  032%=      5-min Rain = 0
KAM2 112227Z 17012KT 33/14 A3001 RMK A01 T03280143  RH  033%=      5-min Rain = 0
KAM2 112228Z 17014KT 33/14 A3001 RMK A01 T03290142  RH  032%=      5-min Rain = 0
KAM2 112229Z 17018KT 33/14 A3001 RMK A01 T03310143  RH  032%=      5-min Rain = 0
KAM2 112230Z 17017KT 34/14 A3001 RMK A01 T03350144  RH  032%=      5-min Rain = 0
KAM2 112231Z 18018G23KT 34/15 A3001 RMK A01 T03390146  RH  031%=      5-min Rain = 0
KAM2 112232Z 17020G25KT 34/15 A3001 RMK A01 T03390145  RH  031%=      5-min Rain = 0
KAM2 112233Z 17021KT 34/14 A3001 RMK A01 T03390142  RH  031%=      5-min Rain = 0
KAM2 112234Z 17019KT 34/14 A3001 RMK A01 T03390141  RH  030%=      5-min Rain = 0
KAM2 112235Z 17015KT 34/14 A3001 RMK A01 T03370141  RH  031%=      5-min Rain = 0
KAM2 112236Z 18012KT 34/14 A3001 RMK A01 T03360144  RH  031%=      5-min Rain = 0
KAM2 112237Z 18014G21KT 34/15 A3001 RMK A01 T03390145  RH  031%=      5-min Rain = 0
KAM2 112238Z 17020KT 34/14 A3001 RMK A01 T03400143  RH  031%=      5-min Rain = 0
KAM2 112239Z 16015G20KT 34/14 A3001 RMK A01 T03380142  RH  031%=      5-min Rain = 0
KAM2 112240Z 16015G21KT 34/14 A3001 RMK A01 T03380144  RH  031%=      5-min Rain = 0
KAM2 112241Z 17014KT 34/14 A3001 RMK A01 T03390143  RH  031%=      5-min Rain = 0
KAM2 112242Z 15015G20KT 34/14 A3001 RMK A01 T03390144  RH  031%=      5-min Rain = 0
KAM2 112243Z 15018KT 34/14 A3001 RMK A01 T03360141  RH  031%=      5-min Rain = 0
KAM2 112244Z 16019KT 33/14 A3001 RMK A01 T03320140  RH  031%=      5-min Rain = 0
KAM2 112245Z 15018KT 33/14 A3001 RMK A01 T03320140  RH  031%=      5-min Rain = 0
KAM2 112246Z 16016KT 33/14 A3001 RMK A01 T03340141  RH  031%=      5-min Rain = 0
KAM2 112247Z 15018KT 33/14 A3001 RMK A01 T03340140  RH  031%=      5-min Rain = 0
KAM2 112248Z 15020KT 34/14 A30 RMK A01 T03350140  RH  031%=      5-min Rain = 0
KAM2 112249Z 16016KT 34/14 A3001 RMK A01 T03360141  RH  031%=      5-min Rain = 0
KAM2 112250Z 16020G26KT 34/14 A3001 RMK A01 T03390144  RH  031%=      5-min Rain = 0
KAM2 112251Z 16021KT 34/14 A3001 RMK A01 T03410142  RH  030%=      5-min Rain = 0
KAM2 112252Z 17019KT 34/14 A3001 RMK A01 T03380141  RH  030%=      5-min Rain = 0
KAM2 112253Z 16018KT 34/14 A3001 RMK A01 T03370141  RH  031%=      5-min Rain = 0
KAM2 112254Z 17016KT 34/14 A3001 RMK A01 T03380141  RH  030%=      5-min Rain = 0
KAM2 112255Z 16019KT 34/14 A3001 RMK A01 T03380141  RH  030%=      5-min Rain = 0
KAM2 112256Z 16018KT 34/14 A3001 RMK A01 T03380140  RH  030%=      5-min Rain = 0
KAM2 112257Z 16016KT 34/14 A3001 RMK A01 T03370140  RH  031%=      5-min Rain = 0
KAM2 112258Z 17016KT 34/14 A3001 RMK A01 T03370140  RH  031%=      5-min Rain = 0
KAM2 112259Z 16018G23KT 34/14 A3001 RMK A01 T03380141  RH  031%=      5-min Rain = 0
KAM2 112300Z 16019KT 34/14 A3001 RMK A01 T03390141  RH  030%=      5-min Rain = 0
KAM2 112301Z 16016G21KT 34/14 A3001 RMK A01 T03400139  RH  030%=      5-min Rain = 0
KAM2 112302Z 18017G22KT 34/14 A3001 RMK A01 T03400140  RH  030%=      5-min Rain = 0
KAM2 112303Z 18014KT 34/14 A3001 RMK A01 T03400141  RH  030%=      5-min Rain = 0
KAM2 112304Z 18016KT 34/14 A3001 RMK A01 T03410140  RH  030%=      5-min Rain = 0
KAM2 112305Z 18016KT 34/14 A3001 RMK A01 T03400140  RH  030%=      5-min Rain = 0
KAM2 112306Z 18014KT 34/14 A3001 RMK A01 T03390138  RH  030%=      5-min Rain = 0
KAM2 112307Z 18013KT 34/14 A3001 RMK A01 T03390140  RH  030%=      5-min Rain = 0
KAM2 112308Z 18013KT 34/14 A3001 RMK A01 T03400142  RH  030%=      5-min Rain = 0
KAM2 112309Z 17011KT 34/14 A3001 RMK A01 T03410142  RH  030%=      5-min Rain = 0
KAM2 112310Z 15012KT 34/14 A3001 RMK A01 T03420144  RH  030%=      5-min Rain = 0
KAM2 112311Z 16014KT 34/14 A3001 RMK A01 T03440143  RH  030%=      5-min Rain = 0
KAM2 112312Z 16011KT 35/14 A30 RMK A01 T03450142  RH  030%=      5-min Rain = 0
KAM2 112313Z 16018G24KT 35/14 A30 RMK A01 T03450143  RH  030%=      5-min Rain = 0
KAM2 112314Z 16019G24KT 35/14 A30 RMK A01 T03460141  RH  029%=      5-min Rain = 0
KAM2 112315Z 16020KT 35/14 A30 RMK A01 T03450140  RH  029%=      5-min Rain = 0
KAM2 112316Z 17020G25KT 34/14 A30 RMK A01 T03440139  RH  029%=      5-min Rain = 0
KAM2 112317Z 17017KT 34/14 A3001 RMK A01 T03420140  RH  030%=      5-min Rain = 0
KAM2 112318Z 17018KT 34/14 A3001 RMK A01 T03420139  RH  030%=      5-min Rain = 0
KAM2 112319Z 16016G21KT 34/14 A3001 RMK A01 T03430140  RH  029%=      5-min Rain = 0
KAM2 112320Z 16018KT 34/14 A3001 RMK A01 T03440140  RH  029%=      5-min Rain = 0
KAM2 112321Z 15019KT 34/14 A3001 RMK A01 T03430141  RH  030%=      5-min Rain = 0
KAM2 112322Z 15016KT 34/14 A3001 RMK A01 T03420140  RH  030%=      5-min Rain = 0
KAM2 112323Z 15018G24KT 34/14 A3001 RMK A01 T03400142  RH  030%=      5-min Rain = 0
KAM2 112324Z 16021KT 34/14 A3001 RMK A01 T03400140  RH  030%=      5-min Rain = 0
KAM2 112325Z 15021KT 34/14 A3001 RMK A01 T03380141  RH  030%=      5-min Rain = 0
KAM2 112326Z 15016KT 34/14 A3001 RMK A01 T03370141  RH  031%=      5-min Rain = 0
KAM2 112327Z 14016KT 34/14 A3001 RMK A01 T03360142  RH  031%=      5-min Rain = 0
KAM2 112328Z 15019KT 34/14 A3001 RMK A01 T03370142  RH  031%=      5-min Rain = 0
KAM2 112329Z 16020KT 34/14 A3001 RMK A01 T03370142  RH  031%=      5-min Rain = 0
KAM2 112330Z 15018KT 34/14 A3001 RMK A01 T03370143  RH  031%=      5-min Rain = 0
KAM2 112331Z 16018G23KT 34/14 A3001 RMK A01 T03370142  RH  031%=      5-min Rain = 0
KAM2 112332Z 15019KT 34/14 A3001 RMK A01 T03370143  RH  031%=      5-min Rain = 0
KAM2 112333Z 16019KT 34/14 A3001 RMK A01 T03360142  RH  031%=      5-min Rain = 0
KAM2 112334Z 16017G22KT 34/14 A3001 RMK A01 T03360143  RH  031%=      5-min Rain = 0
KAM2 112335Z 15021KT 34/14 A3001 RMK A01 T03370144  RH  031%=      5-min Rain = 0
KAM2 112336Z 16022KT 34/14 A3001 RMK A01 T03370143  RH  031%=      5-min Rain = 0
KAM2 112337Z 16019G24KT 34/14 A3001 RMK A01 T03350143  RH  031%=      5-min Rain = 0
KAM2 112338Z 16019G25KT 34/14 A3001 RMK A01 T03350143  RH  031%=      5-min Rain = 0
KAM2 112339Z 16017G22KT 33/14 A3001 RMK A01 T03330142  RH  032%=      5-min Rain = 0
KAM2 112340Z 15015KT 33/14 A3001 RMK A01 T03330144  RH  032%=      5-min Rain = 0
KAM2 112341Z 16021KT 34/14 A3001 RMK A01 T03350144  RH  032%=      5-min Rain = 0
KAM2 112342Z 16019KT 33/14 A3001 RMK A01 T03340143  RH  032%=      5-min Rain = 0
KAM2 112343Z 15019KT 33/14 A3001 RMK A01 T03310142  RH  032%=      5-min Rain = 0
KAM2 112344Z 15019KT 33/14 A3001 RMK A01 T03280141  RH  032%=      5-min Rain = 0
KAM2 112345Z 15017KT 33/14 A3001 RMK A01 T03260141  RH  033%=      5-min Rain = 0
KAM2 112346Z 16014G21KT 33/14 A3001 RMK A01 T03250141  RH  033%=      5-min Rain = 0
KAM2 112347Z 16017KT 33/14 A3001 RMK A01 T03250141  RH  033%=      5-min Rain = 0
KAM2 112348Z 15016G21KT 33/14 A3001 RMK A01 T03250142  RH  033%=      5-min Rain = 0
KAM2 112349Z 15018G23KT 32/14 A3001 RMK A01 T03240140  RH  033%=      5-min Rain = 0
KAM2 112350Z 16014KT 32/14 A3001 RMK A01 T03240140  RH  033%=      5-min Rain = 0
KAM2 112351Z 16017G22KT 33/14 A3001 RMK A01 T03260141  RH  033%=      5-min Rain = 0
KAM2 112352Z 15017KT 33/14 A3001 RMK A01 T03270143  RH  033%=      5-min Rain = 0
KAM2 112353Z 17018KT 33/14 A3001 RMK A01 T03270143  RH  033%=      5-min Rain = 0
KAM2 112354Z 17016KT 33/14 A3001 RMK A01 T03270143  RH  033%=      5-min Rain = 0
KAM2 112355Z 16020KT 33/14 A3001 RMK A01 T03260142  RH  033%=      5-min Rain = 0
KAM2 112356Z 17019KT 33/14 A3001 RMK A01 T03270142  RH  033%=      5-min Rain = 0
KAM2 112357Z 16016G21KT 33/14 A3001 RMK A01 T03270142  RH  033%=      5-min Rain = 0
KAM2 112358Z 15019KT 33/14 A3001 RMK A01 T03260142  RH  033%=      5-min Rain = 0
KAM2 112359Z 15016KT 33/14 A3001 RMK A01 T03250142  RH  033%=      5-min Rain = 0
KAM2 120000Z 16016KT 33/14 A3001 RMK A01 T03270143  RH  033%=      5-min Rain = 0
KAM2 120001Z 17018KT 33/14 A3001 RMK A01 T03280142  RH  032%=      5-min Rain = 0
KAM2 120002Z 15016G21KT 33/14 A3001 RMK A01 T03290143  RH  033%=      5-min Rain = 0
KAM2 120003Z 15015KT 33/14 A3001 RMK A01 T03290142  RH  032%=      5-min Rain = 0
KAM2 120004Z 16015G20KT 33/14 A3001 RMK A01 T03290143  RH  032%=      5-min Rain = 0
KAM2 120005Z 16013G18KT 33/14 A3001 RMK A01 T03290143  RH  033%=      5-min Rain = 0
KAM2 120006Z 15016G22KT 33/14 A3001 RMK A01 T03300143  RH  032%=      5-min Rain = 0
KAM2 120007Z 15019KT 33/14 A3001 RMK A01 T03300141  RH  032%=      5-min Rain = 0
KAM2 120008Z 16019KT 33/14 A3001 RMK A01 T03290141  RH  032%=      5-min Rain = 0
KAM2 120009Z 17017KT 33/14 A3001 RMK A01 T03260140  RH  032%=      5-min Rain = 0
KAM2 120010Z 16016KT 32/14 A3001 RMK A01 T03240141  RH  033%=      5-min Rain = 0
KAM2 120011Z 15021KT 32/14 A3001 RMK A01 T03230140  RH  033%=      5-min Rain = 0
KAM2 120012Z 16020KT 32/14 A3001 RMK A01 T03210139  RH  033%=      5-min Rain = 0
KAM2 120013Z 16017KT 32/14 A3001 RMK A01 T03200139  RH  033%=      5-min Rain = 0
KAM2 120014Z 16017G23KT 32/14 A3002 RMK A01 T03200139  RH  033%=      5-min Rain = 0
KAM2 120015Z 16019KT 32/14 A3002 RMK A01 T03190139  RH  034%=      5-min Rain = 0
KAM2 120016Z 16018G23KT 32/14 A3002 RMK A01 T03190139  RH  034%=      5-min Rain = 0
KAM2 120017Z 16017KT 32/14 A3001 RMK A01 T03180139  RH  034%=      5-min Rain = 0
KAM2 120018Z 15015KT 32/14 A3002 RMK A01 T03180140  RH  034%=      5-min Rain = 0
KAM2 120019Z 15016G22KT 32/14 A3002 RMK A01 T03180140  RH  034%=      5-min Rain = 0
KAM2 120020Z 16017KT 32/14 A3002 RMK A01 T03180141  RH  034%=      5-min Rain = 0
KAM2 120021Z 15015KT 32/14 A3002 RMK A01 T03170140  RH  034%=      5-min Rain = 0
KAM2 120022Z 15015KT 32/14 A3002 RMK A01 T03170141  RH  034%=      5-min Rain = 0
KAM2 120023Z 15016G21KT 32/14 A3002 RMK A01 T03170141  RH  034%=      5-min Rain = 0
KAM2 120024Z 15019KT 32/14 A3002 RMK A01 T03170140  RH  034%=      5-min Rain = 0
KAM2 120025Z 15016KT 32/14 A3002 RMK A01 T03160139  RH  034%=      5-min Rain = 0
KAM2 120026Z 16017KT 32/14 A3002 RMK A01 T03160139  RH  034%=      5-min Rain = 0
KAM2 120027Z 16016KT 32/14 A3002 RMK A01 T03160138  RH  034%=      5-min Rain = 0
KAM2 120028Z 16014KT 32/14 A3002 RMK A01 T03160139  RH  034%=      5-min Rain = 0
KAM2 120029Z 16012KT 32/14 A3002 RMK A01 T03160139  RH  034%=      5-min Rain = 0
KAM2 120030Z 16017KT 32/14 A3002 RMK A01 T03160138  RH  034%=      5-min Rain = 0
KAM2 120031Z 16019KT 32/14 A3002 RMK A01 T03160137  RH  034%=      5-min Rain = 0
KAM2 120032Z 16018KT 32/14 A3002 RMK A01 T03160137  RH  034%=      5-min Rain = 0
KAM2 120033Z 16019KT 32/14 A3002 RMK A01 T03150137  RH  034%=      5-min Rain = 0
KAM2 120034Z 16018KT 32/14 A3002 RMK A01 T03150137  RH  034%=      5-min Rain = 0
KAM2 120035Z 16018KT 32/14 A3002 RMK A01 T03150137  RH  034%=      5-min Rain = 0
KAM2 120036Z 15019KT 32/14 A3002 RMK A01 T03150136  RH  034%=      5-min Rain = 0
KAM2 120037Z 16018KT 31/14 A3002 RMK A01 T03140136  RH  034%=      5-min Rain = 0
KAM2 120038Z 16019KT 31/14 A3002 RMK A01 T03140136  RH  034%=      5-min Rain = 0
KAM2 120039Z 16017KT 31/14 A3002 RMK A01 T03140136  RH  034%=      5-min Rain = 0
KAM2 120040Z 15015KT 31/14 A3002 RMK A01 T03140136  RH  034%=      5-min Rain = 0
KAM2 120041Z 16014G19KT 31/14 A3002 RMK A01 T03140136  RH  034%=      5-min Rain = 0
KAM2 120042Z 15012KT 31/14 A3002 RMK A01 T03140137  RH  034%=      5-min Rain = 0
KAM2 120043Z 15013KT 31/14 A3002 RMK A01 T03140137  RH  034%=      5-min Rain = 0
KAM2 120044Z 14015KT 31/14 A3002 RMK A01 T03140138  RH  034%=      5-min Rain = 0
KAM2 120045Z 13012KT 31/14 A3002 RMK A01 T03130143  RH  036%=      5-min Rain = 0
KAM2 120046Z 13014KT 31/15 A3002 RMK A01 T03100152  RH  038%=      5-min Rain = 0
KAM2 120047Z 13013KT 31/15 A3002 RMK A01 T03050153  RH  040%=      5-min Rain = 0
KAM2 120048Z 13011KT 30/16 A3002 RMK A01 T03020155  RH  041%=      5-min Rain = 0
KAM2 120049Z 13011KT 30/16 A3002 RMK A01 T03010155  RH  041%=      5-min Rain = 0
KAM2 120050Z 13010KT 30/16 A3002 RMK A01 T03010157  RH  042%=      5-min Rain = 0
KAM2 120051Z 13009KT 30/16 A3002 RMK A01 T03000158  RH  042%=      5-min Rain = 0
KAM2 120052Z 13010KT 30/16 A3002 RMK A01 T02990158  RH  043%=      5-min Rain = 0
KAM2 120053Z 14011KT 30/15 A3003 RMK A01 T02990154  RH  041%=      5-min Rain = 0
KAM2 120054Z 13011KT 30/15 A3002 RMK A01 T03020145  RH  039%=      5-min Rain = 0
KAM2 120055Z 14012KT 31/14 A3003 RMK A01 T03060142  RH  037%=      5-min Rain = 0
KAM2 120056Z 14014KT 31/14 A3003 RMK A01 T03090139  RH  036%=      5-min Rain = 0
KAM2 120057Z 15012KT 31/14 A3003 RMK A01 T03110140  RH  035%=      5-min Rain = 0
KAM2 120058Z 16013G18KT 31/14 A3002 RMK A01 T03130139  RH  035%=      5-min Rain = 0
KAM2 120059Z 16013KT 31/14 A3002 RMK A01 T03140138  RH  034%=      5-min Rain = 0
KAM2 120100Z 16014G19KT 32/14 A3002 RMK A01 T03150138  RH  034%=      5-min Rain = 0
KAM2 120101Z 16015KT 32/14 A3002 RMK A01 T03160137  RH  034%=      5-min Rain = 0
KAM2 120102Z 15016KT 32/14 A3002 RMK A01 T03170137  RH  034%=      5-min Rain = 0
KAM2 120103Z 15012KT 32/14 A3002 RMK A01 T03170136  RH  033%=      5-min Rain = 0
KAM2 120104Z 15013KT 32/14 A3002 RMK A01 T03170137  RH  033%=      5-min Rain = 0
KAM2 120105Z 15015G20KT 32/14 A3002 RMK A01 T03170136  RH  033%=      5-min Rain = 0
KAM2 120106Z 15017KT 32/14 A3002 RMK A01 T03170135  RH  033%=      5-min Rain = 0
KAM2 120107Z 14014KT 32/14 A3002 RMK A01 T03170135  RH  033%=      5-min Rain = 0
KAM2 120108Z 15016KT 32/14 A3002 RMK A01 T03170136  RH  033%=      5-min Rain = 0
KAM2 120109Z 15014KT 32/14 A3002 RMK A01 T03170135  RH  033%=      5-min Rain = 0
KAM2 120110Z 15015KT 32/14 A3002 RMK A01 T03160135  RH  033%=      5-min Rain = 0
KAM2 120111Z 15015G20KT 32/14 A3002 RMK A01 T03160136  RH  033%=      5-min Rain = 0
KAM2 120112Z 15015KT 32/14 A3002 RMK A01 T03160137  RH  034%=      5-min Rain = 0
KAM2 120113Z 15019KT 32/14 A3002 RMK A01 T03150137  RH  034%=      5-min Rain = 0
KAM2 120114Z 15019G24KT 31/14 A3002 RMK A01 T03140137  RH  034%=      5-min Rain = 0
KAM2 120115Z 15016KT 31/14 A3002 RMK A01 T03130138  RH  034%=      5-min Rain = 0
KAM2 120116Z 15018KT 31/14 A3002 RMK A01 T03130139  RH  035%=      5-min Rain = 0
KAM2 120117Z 15017KT 31/14 A3002 RMK A01 T03120139  RH  035%=      5-min Rain = 0
KAM2 120118Z 15018KT 31/14 A3002 RMK A01 T03110140  RH  035%=      5-min Rain = 0
KAM2 120119Z 15017G22KT 31/14 A3002 RMK A01 T03090141  RH  036%=      5-min Rain = 0
KAM2 120120Z 16018KT 31/14 A3002 RMK A01 T03080142  RH  036%=      5-min Rain = 0
KAM2 120121Z 15016KT 31/15 A3002 RMK A01 T03050148  RH  039%=      5-min Rain = 0
KAM2 120122Z 15016KT 30/15 A3002 RMK A01 T03000152  RH  041%=      5-min Rain = 0
KAM2 120123Z 14014KT 30/16 A3002 RMK A01 T02950157  RH  043%=      5-min Rain = 0
KAM2 120124Z 15013KT 29/16 A3002 RMK A01 T02900162  RH  046%=      5-min Rain = 0
KAM2 120125Z 15015KT 29/16 A3002 RMK A01 T02860156  RH  045%=      5-min Rain = 0
KAM2 120126Z 15013KT 29/15 A3002 RMK A01 T02860153  RH  044%=      5-min Rain = 0
KAM2 120127Z 15013KT 29/15 A3002 RMK A01 T02860151  RH  044%=      5-min Rain = 0
KAM2 120128Z 15013KT 29/15 A3002 RMK A01 T02870149  RH  043%=      5-min Rain = 0
KAM2 120129Z 15013KT 29/15 A3002 RMK A01 T02890148  RH  042%=      5-min Rain = 0
KAM2 120130Z 15012KT 29/15 A3002 RMK A01 T02900147  RH  042%=      5-min Rain = 0
KAM2 120131Z 15011KT 29/15 A3002 RMK A01 T02910147  RH  041%=      5-min Rain = 0
KAM2 120132Z 16012KT 29/15 A3002 RMK A01 T02920147  RH  041%=      5-min Rain = 0
KAM2 120133Z 15011KT 29/15 A3002 RMK A01 T02920145  RH  041%=      5-min Rain = 0
KAM2 120134Z 16011KT 29/15 A3002 RMK A01 T02930145  RH  040%=      5-min Rain = 0
KAM2 120135Z 15011KT 29/14 A3002 RMK A01 T02930144  RH  040%=      5-min Rain = 0
KAM2 120136Z 16010KT 29/14 A3002 RMK A01 T02930143  RH  040%=      5-min Rain = 0
KAM2 120137Z 16013KT 29/14 A3002 RMK A01 T02940141  RH  039%=      5-min Rain = 0
KAM2 120138Z 16013KT 29/14 A3002 RMK A01 T02940140  RH  039%=      5-min Rain = 0
KAM2 120139Z 16012KT 30/14 A3002 RMK A01 T02950139  RH  038%=      5-min Rain = 0
KAM2 120140Z 16012KT 30/14 A3002 RMK A01 T02950138  RH  038%=      5-min Rain = 0
KAM2 120141Z 16014KT 30/14 A3002 RMK A01 T02950137  RH  038%=      5-min Rain = 0
KAM2 120142Z 16012KT 30/14 A3002 RMK A01 T02960137  RH  038%=      5-min Rain = 0
KAM2 120143Z 15011KT 30/14 A3003 RMK A01 T02960138  RH  038%=      5-min Rain = 0
KAM2 120144Z 16012KT 30/14 A3003 RMK A01 T02950137  RH  038%=      5-min Rain = 0
KAM2 120145Z 16014KT 30/14 A3003 RMK A01 T02950136  RH  038%=      5-min Rain = 0
KAM2 120146Z 16013KT 30/14 A3003 RMK A01 T02950135  RH  038%=      5-min Rain = 0
KAM2 120147Z 16012KT 30/14 A3003 RMK A01 T02950136  RH  038%=      5-min Rain = 0
KAM2 120148Z 16014KT 30/14 A3003 RMK A01 T02950135  RH  037%=      5-min Rain = 0
KAM2 120149Z 16013KT 30/13 A3003 RMK A01 T02960134  RH  037%=      5-min Rain = 0
KAM2 120150Z 16011KT 30/14 A3003 RMK A01 T02960135  RH  037%=      5-min Rain = 0
KAM2 120151Z 17013KT 30/13 A3003 RMK A01 T02960134  RH  037%=      5-min Rain = 0
KAM2 120152Z 16013KT 30/13 A3003 RMK A01 T02960134  RH  037%=      5-min Rain = 0
KAM2 120153Z 16012KT 30/13 A3003 RMK A01 T02950134  RH  037%=      5-min Rain = 0
KAM2 120154Z 17012KT 30/13 A3003 RMK A01 T02950133  RH  037%=      5-min Rain = 0
KAM2 120155Z 17012KT 30/13 A3003 RMK A01 T02950133  RH  037%=      5-min Rain = 0
KAM2 120156Z 16010KT 30/13 A3003 RMK A01 T02950133  RH  037%=      5-min Rain = 0
KAM2 120157Z 17011KT 30/13 A3003 RMK A01 T02960133  RH  037%=      5-min Rain = 0
KAM2 120158Z 17011KT 30/13 A3004 RMK A01 T02950133  RH  037%=      5-min Rain = 0
KAM2 120159Z 16013KT 30/13 A3004 RMK A01 T02950133  RH  037%=      5-min Rain = 0
KAM2 120200Z 16014KT 30/13 A3004 RMK A01 T02950131  RH  037%=      5-min Rain = 0
KAM2 120201Z 17011KT 30/13 A3004 RMK A01 T02960131  RH  036%=      5-min Rain = 0
KAM2 120202Z 17011KT 30/13 A3004 RMK A01 T02960132  RH  036%=      5-min Rain = 0
KAM2 120203Z 16011KT 30/13 A3004 RMK A01 T02960132  RH  036%=      5-min Rain = 0
KAM2 120204Z 16012KT 30/13 A3004 RMK A01 T02960132  RH  037%=      5-min Rain = 0
KAM2 120205Z 16011KT 30/13 A3004 RMK A01 T02950132  RH  037%=      5-min Rain = 0
KAM2 120206Z 17011KT 30/13 A3004 RMK A01 T02950132  RH  037%=      5-min Rain = 0
KAM2 120207Z 17011KT 30/13 A3004 RMK A01 T02950132  RH  037%=      5-min Rain = 0
KAM2 120208Z 17011KT 29/13 A3004 RMK A01 T02940132  RH  037%=      5-min Rain = 0
KAM2 120209Z 16011KT 29/13 A3004 RMK A01 T02940132  RH  037%=      5-min Rain = 0
KAM2 120210Z 16011KT 29/13 A3004 RMK A01 T02940132  RH  037%=      5-min Rain = 0
KAM2 120211Z 16010KT 29/13 A3004 RMK A01 T02940132  RH  037%=      5-min Rain = 0
KAM2 120212Z 16011KT 29/13 A3004 RMK A01 T02930132  RH  037%=      5-min Rain = 0
KAM2 120213Z 16011KT 29/13 A3004 RMK A01 T02930132  RH  037%=      5-min Rain = 0
KAM2 120214Z 16011KT 29/13 A3004 RMK A01 T02930132  RH  037%=      5-min Rain = 0
KAM2 120215Z 16010KT 29/13 A3004 RMK A01 T02920132  RH  037%=      5-min Rain = 0
KAM2 120216Z 16010KT 29/13 A3004 RMK A01 T02920133  RH  038%=      5-min Rain = 0
KAM2 120217Z 16010KT 29/13 A3004 RMK A01 T02910132  RH  038%=      5-min Rain = 0
KAM2 120218Z 16011KT 29/13 A3004 RMK A01 T02910132  RH  038%=      5-min Rain = 0
KAM2 120219Z 16011KT 29/13 A3004 RMK A01 T02910132  RH  038%=      5-min Rain = 0
KAM2 120220Z 16010KT 29/13 A3004 RMK A01 T02910132  RH  038%=      5-min Rain = 0
KAM2 120221Z 16009KT 29/13 A3004 RMK A01 T02910132  RH  038%=      5-min Rain = 0
KAM2 120222Z 16010KT 29/13 A3004 RMK A01 T02900132  RH  038%=      5-min Rain = 0
KAM2 120223Z 16011KT 29/13 A3004 RMK A01 T02900132  RH  038%=      5-min Rain = 0
KAM2 120224Z 16011KT 29/13 A3004 RMK A01 T02900132  RH  038%=      5-min Rain = 0
KAM2 120225Z 16010KT 29/13 A3004 RMK A01 T02900132  RH  038%=      5-min Rain = 0
KAM2 120226Z 16010KT 29/13 A3004 RMK A01 T02890132  RH  038%=      5-min Rain = 0
KAM2 120227Z 16010KT 29/13 A3004 RMK A01 T02900132  RH  038%=      5-min Rain = 0
KAM2 120228Z 16012KT 29/13 A3004 RMK A01 T02900132  RH  038%=      5-min Rain = 0
KAM2 120229Z 16012KT 29/13 A3004 RMK A01 T02890131  RH  038%=      5-min Rain = 0
KAM2 120230Z 17010KT 29/13 A3004 RMK A01 T02900132  RH  038%=      5-min Rain = 0
KAM2 120231Z 16010KT 29/13 A3004 RMK A01 T02900132  RH  038%=      5-min Rain = 0
KAM2 120232Z 16010KT 29/13 A3005 RMK A01 T02890132  RH  038%=      5-min Rain = 0
KAM2 120233Z 16010KT 29/13 A3005 RMK A01 T02880132  RH  038%=      5-min Rain = 0
KAM2 120234Z 17010KT 29/13 A3005 RMK A01 T02880132  RH  038%=      5-min Rain = 0
KAM2 120235Z 16009KT 29/13 A3005 RMK A01 T02880132  RH  038%=      5-min Rain = 0
KAM2 120236Z 16010KT 29/13 A3005 RMK A01 T02880132  RH  038%=      5-min Rain = 0
KAM2 120237Z 16010KT 29/13 A3005 RMK A01 T02880132  RH  038%=      5-min Rain = 0
KAM2 120238Z 16010KT 29/13 A3005 RMK A01 T02880132  RH  038%=      5-min Rain = 0
KAM2 120239Z 16010KT 29/13 A3005 RMK A01 T02880132  RH  038%=      5-min Rain = 0
KAM2 120240Z 16010KT 29/13 A3005 RMK A01 T02880132  RH  038%=      5-min Rain = 0
KAM2 120241Z 16010KT 29/13 A3005 RMK A01 T02880132  RH  038%=      5-min Rain = 0
KAM2 120242Z 16010KT 29/13 A3005 RMK A01 T02890132  RH  038%=      5-min Rain = 0
KAM2 120243Z 16010KT 29/13 A3005 RMK A01 T02890132  RH  038%=      5-min Rain = 0
KAM2 120244Z 16010KT 29/13 A3005 RMK A01 T02890133  RH  038%=      5-min Rain = 0
KAM2 120245Z 16010KT 29/13 A3005 RMK A01 T02890133  RH  038%=      5-min Rain = 0
KAM2 120246Z 16009KT 29/13 A3005 RMK A01 T02880133  RH  038%=      5-min Rain = 0
KAM2 120247Z 17011KT 29/13 A3005 RMK A01 T02880133  RH  038%=      5-min Rain = 0
KAM2 120248Z 17009KT 29/13 A3005 RMK A01 T02880133  RH  038%=      5-min Rain = 0
KAM2 120249Z 16009KT 29/13 A3005 RMK A01 T02880133  RH  038%=      5-min Rain = 0
KAM2 120250Z 16011KT 29/13 A3005 RMK A01 T02880132  RH  038%=      5-min Rain = 0
KAM2 120251Z 16010KT 29/13 A3005 RMK A01 T02890133  RH  038%=      5-min Rain = 0
KAM2 120252Z 16010KT 29/13 A3006 RMK A01 T02890133  RH  038%=      5-min Rain = 0
KAM2 120253Z 16010KT 29/13 A3006 RMK A01 T02900133  RH  038%=      5-min Rain = 0
KAM2 120254Z 16011KT 29/13 A3006 RMK A01 T02900133  RH  038%=      5-min Rain = 0
KAM2 120255Z 17011KT 29/13 A3006 RMK A01 T02910133  RH  038%=      5-min Rain = 0
KAM2 120256Z 17010KT 29/13 A3006 RMK A01 T02910133  RH  038%=      5-min Rain = 0
KAM2 120257Z 16011KT 29/13 A3006 RMK A01 T02910133  RH  038%=      5-min Rain = 0
KAM2 120258Z 16009KT 29/13 A3006 RMK A01 T02910133  RH  038%=      5-min Rain = 0
KAM2 120259Z 16010KT 29/13 A3006 RMK A01 T02910133  RH  038%=      5-min Rain = 0
KAM2 120300Z 16009KT 29/13 A3006 RMK A01 T02910134  RH  038%=      5-min Rain = 0
KAM2 120301Z 16009KT 29/13 A3006 RMK A01 T02900133  RH  038%=      5-min Rain = 0
KAM2 120302Z 16011KT 29/13 A3006 RMK A01 T02910133  RH  038%=      5-min Rain = 0
KAM2 120303Z 16010KT 29/13 A3006 RMK A01 T02910134  RH  038%=      5-min Rain = 0
KAM2 120304Z 16011KT 29/13 A3006 RMK A01 T02910133  RH  038%=      5-min Rain = 0
KAM2 120305Z 16011KT 29/13 A3006 RMK A01 T02910133  RH  038%=      5-min Rain = 0
KAM2 120306Z 16010KT 29/13 A3006 RMK A01 T02910134  RH  038%=      5-min Rain = 0
KAM2 120307Z 16011KT 29/13 A3006 RMK A01 T02910133  RH  038%=      5-min Rain = 0
KAM2 120308Z 16012KT 29/13 A3006 RMK A01 T02910133  RH  038%=      5-min Rain = 0
KAM2 120309Z 16011KT 29/13 A3006 RMK A01 T02910133  RH  038%=      5-min Rain = 0
KAM2 120310Z 16010KT 29/13 A3006 RMK A01 T02910134  RH  038%=      5-min Rain = 0
KAM2 120311Z 16011KT 29/13 A3006 RMK A01 T02910134  RH  038%=      5-min Rain = 0
KAM2 120312Z 16009KT 29/13 A3006 RMK A01 T02910134  RH  038%=      5-min Rain = 0
KAM2 120313Z 16010KT 29/13 A3006 RMK A01 T02900134  RH  038%=      5-min Rain = 0
KAM2 120314Z 16010KT 29/13 A3007 RMK A01 T02900134  RH  038%=      5-min Rain = 0
KAM2 120315Z 16010KT 29/13 A3007 RMK A01 T02900134  RH  038%=      5-min Rain = 0
KAM2 120316Z 16009KT 29/13 A3007 RMK A01 T02900134  RH  038%=      5-min Rain = 0
KAM2 120317Z 16009KT 29/13 A3007 RMK A01 T02900134  RH  038%=      5-min Rain = 0
KAM2 120318Z 16008KT 29/13 A3007 RMK A01 T02890134  RH  039%=      5-min Rain = 0
KAM2 120319Z 16010KT 29/13 A3007 RMK A01 T02890134  RH  039%=      5-min Rain = 0
KAM2 120320Z 16009KT 29/13 A3007 RMK A01 T02890134  RH  039%=      5-min Rain = 0
KAM2 120321Z 16009KT 29/13 A3007 RMK A01 T02890134  RH  039%=      5-min Rain = 0
KAM2 120322Z 16010KT 29/13 A3007 RMK A01 T02890134  RH  039%=      5-min Rain = 0
KAM2 120323Z 15009KT 29/13 A3007 RMK A01 T02890134  RH  039%=      5-min Rain = 0
KAM2 120324Z 16009KT 29/13 A3007 RMK A01 T02890134  RH  039%=      5-min Rain = 0
KAM2 120325Z 16010KT 29/13 A3007 RMK A01 T02890134  RH  039%=      5-min Rain = 0
KAM2 120326Z 16008KT 29/13 A3007 RMK A01 T02890134  RH  039%=      5-min Rain = 0
KAM2 120327Z 16009KT 29/13 A3007 RMK A01 T02890134  RH  039%=      5-min Rain = 0
KAM2 120328Z 16008KT 29/13 A3007 RMK A01 T02890134  RH  039%=      5-min Rain = 0
KAM2 120329Z 16009KT 29/13 A3007 RMK A01 T02880134  RH  039%=      5-min Rain = 0
KAM2 120330Z 15008KT 29/13 A3007 RMK A01 T02880134  RH  039%=      5-min Rain = 0
KAM2 120331Z 16009KT 29/13 A3007 RMK A01 T02880134  RH  039%=      5-min Rain = 0
KAM2 120332Z 16009KT 29/13 A3007 RMK A01 T02880134  RH  039%=      5-min Rain = 0
KAM2 120333Z 16008KT 29/13 A3007 RMK A01 T02880134  RH  039%=      5-min Rain = 0
KAM2 120334Z 16008KT 29/14 A3007 RMK A01 T02870135  RH  039%=      5-min Rain = 0
KAM2 120335Z 15009KT 29/13 A3007 RMK A01 T02870134  RH  039%=      5-min Rain = 0
KAM2 120336Z 15008KT 29/13 A3007 RMK A01 T02870134  RH  039%=      5-min Rain = 0
KAM2 120337Z 16009KT 29/13 A3007 RMK A01 T02870134  RH  039%=      5-min Rain = 0
KAM2 120338Z 16009KT 29/13 A3007 RMK A01 T02870134  RH  039%=      5-min Rain = 0
KAM2 120339Z 16009KT 29/13 A3007 RMK A01 T02870133  RH  039%=      5-min Rain = 0
KAM2 120340Z 16009KT 29/13 A3007 RMK A01 T02870133  RH  039%=      5-min Rain = 0
KAM2 120341Z 16009KT 29/13 A3007 RMK A01 T02870134  RH  039%=      5-min Rain = 0
KAM2 120342Z 16008KT 29/13 A3007 RMK A01 T02870134  RH  039%=      5-min Rain = 0
KAM2 120343Z 16009KT 29/13 A3007 RMK A01 T02860134  RH  039%=      5-min Rain = 0
KAM2 120344Z 16009KT 29/13 A3007 RMK A01 T02860134  RH  039%=      5-min Rain = 0
KAM2 120345Z 16009KT 29/13 A3007 RMK A01 T02860134  RH  039%=      5-min Rain = 0
KAM2 120346Z 16009KT 29/13 A3007 RMK A01 T02860134  RH  039%=      5-min Rain = 0
KAM2 120347Z 16008KT 29/13 A3007 RMK A01 T02860134  RH  039%=      5-min Rain = 0
KAM2 120348Z 16008KT 29/13 A3007 RMK A01 T02850134  RH  039%=      5-min Rain = 0
KAM2 120349Z 16008KT 28/13 A3007 RMK A01 T02840134  RH  040%=      5-min Rain = 0
KAM2 120350Z 16007KT 28/13 A3007 RMK A01 T02840134  RH  040%=      5-min Rain = 0
KAM2 120351Z 16009KT 28/13 A3007 RMK A01 T02830134  RH  040%=      5-min Rain = 0
KAM2 120352Z 16008KT 28/13 A3008 RMK A01 T02830134  RH  040%=      5-min Rain = 0
KAM2 120353Z 16008KT 28/13 A3008 RMK A01 T02830134  RH  040%=      5-min Rain = 0
KAM2 120354Z 16009KT 28/13 A3008 RMK A01 T02820134  RH  040%=      5-min Rain = 0
KAM2 120355Z 16009KT 28/13 A3008 RMK A01 T02820134  RH  040%=      5-min Rain = 0
KAM2 120356Z 16008KT 28/13 A3008 RMK A01 T02820134  RH  040%=      5-min Rain = 0
KAM2 120357Z 16008KT 28/13 A3008 RMK A01 T02820134  RH  040%=      5-min Rain = 0
KAM2 120358Z 16008KT 28/13 A3008 RMK A01 T02820134  RH  040%=      5-min Rain = 0
KAM2 120359Z 16008KT 28/13 A3008 RMK A01 T02810134  RH  040%=      5-min Rain = 0
KAM2 120400Z 15008KT 28/13 A3008 RMK A01 T02810134  RH  040%=      5-min Rain = 0
KAM2 120401Z 15008KT 28/13 A3008 RMK A01 T02800134  RH  041%=      5-min Rain = 0
KAM2 120402Z 15008KT 28/13 A3008 RMK A01 T02800134  RH  041%=      5-min Rain = 0
KAM2 120403Z 15008KT 28/13 A3008 RMK A01 T02800134  RH  041%=      5-min Rain = 0
KAM2 120404Z 15008KT 28/13 A3008 RMK A01 T02790134  RH  041%=      5-min Rain = 0
KAM2 120405Z 15008KT 28/13 A3008 RMK A01 T02790134  RH  041%=      5-min Rain = 0
KAM2 120406Z 15008KT 28/13 A3008 RMK A01 T02790134  RH  041%=      5-min Rain = 0
KAM2 120407Z 15008KT 28/13 A3008 RMK A01 T02790134  RH  041%=      5-min Rain = 0
KAM2 120408Z 15009KT 28/13 A3008 RMK A01 T02790134  RH  041%=      5-min Rain = 0
KAM2 120409Z 16008KT 28/13 A3008 RMK A01 T02790134  RH  041%=      5-min Rain = 0
KAM2 120410Z 16009KT 28/13 A3008 RMK A01 T02790133  RH  041%=      5-min Rain = 0
KAM2 120411Z 16008KT 28/13 A3008 RMK A01 T02790133  RH  041%=      5-min Rain = 0
KAM2 120412Z 16009KT 28/13 A3008 RMK A01 T02790133  RH  041%=      5-min Rain = 0
KAM2 120413Z 16009KT 28/13 A3008 RMK A01 T02790133  RH  041%=      5-min Rain = 0
KAM2 120414Z 16009KT 28/13 A3008 RMK A01 T02790134  RH  041%=      5-min Rain = 0
KAM2 120415Z 16009KT 28/13 A3008 RMK A01 T02790133  RH  041%=      5-min Rain = 0
KAM2 120416Z 15009KT 28/13 A3008 RMK A01 T02790133  RH  041%=      5-min Rain = 0
KAM2 120417Z 16009KT 28/13 A3008 RMK A01 T02790133  RH  041%=      5-min Rain = 0
KAM2 120418Z 16009KT 28/13 A3008 RMK A01 T02790133  RH  041%=      5-min Rain = 0
KAM2 120419Z 16009KT 28/13 A3008 RMK A01 T02790133  RH  041%=      5-min Rain = 0
KAM2 120420Z 16010KT 28/13 A3008 RMK A01 T02800133  RH  040%=      5-min Rain = 0
KAM2 120421Z 16010KT 28/13 A3008 RMK A01 T02800133  RH  040%=      5-min Rain = 0
KAM2 120422Z 16009KT 28/13 A3008 RMK A01 T02810133  RH  040%=      5-min Rain = 0
KAM2 120423Z 16010KT 28/13 A3008 RMK A01 T02810133  RH  040%=      5-min Rain = 0
KAM2 120424Z 16010KT 28/13 A3008 RMK A01 T02810133  RH  040%=      5-min Rain = 0
KAM2 120425Z 16010KT 28/13 A3008 RMK A01 T02810133  RH  040%=      5-min Rain = 0
KAM2 120426Z 16011KT 28/13 A3008 RMK A01 T02820133  RH  040%=      5-min Rain = 0
KAM2 120427Z 16010KT 28/13 A3008 RMK A01 T02820133  RH  040%=      5-min Rain = 0
KAM2 120428Z 16010KT 28/13 A3008 RMK A01 T02820133  RH  040%=      5-min Rain = 0
KAM2 120429Z 16012KT 28/13 A3008 RMK A01 T02820133  RH  040%=      5-min Rain = 0
KAM2 120430Z 16010G15KT 28/13 A3008 RMK A01 T02830133  RH  040%=      5-min Rain = 0
KAM2 120431Z 16011KT 28/13 A3008 RMK A01 T02830133  RH  040%=      5-min Rain = 0
KAM2 120432Z 16011KT 28/13 A3008 RMK A01 T02840134  RH  040%=      5-min Rain = 0
KAM2 120433Z 16011KT 28/13 A3008 RMK A01 T02840134  RH  040%=      5-min Rain = 0
KAM2 120434Z 16012KT 28/13 A3008 RMK A01 T02840134  RH  040%=      5-min Rain = 0
KAM2 120435Z 17012KT 29/13 A3008 RMK A01 T02850134  RH  039%=      5-min Rain = 0
KAM2 120436Z 17013KT 29/13 A3008 RMK A01 T02860134  RH  039%=      5-min Rain = 0
KAM2 120437Z 16012KT 29/13 A3008 RMK A01 T02860134  RH  039%=      5-min Rain = 0
KAM2 120438Z 17012KT 29/13 A3008 RMK A01 T02860134  RH  039%=      5-min Rain = 0
KAM2 120439Z 17014KT 29/14 A3008 RMK A01 T02870135  RH  039%=      5-min Rain = 0
KAM2 120440Z 17013KT 29/13 A3008 RMK A01 T02860134  RH  039%=      5-min Rain = 0
KAM2 120441Z 17013KT 29/14 A3008 RMK A01 T02870135  RH  039%=      5-min Rain = 0
KAM2 120442Z 17013KT 29/14 A3008 RMK A01 T02870135  RH  039%=      5-min Rain = 0
KAM2 120443Z 17013KT 29/14 A3008 RMK A01 T02870135  RH  039%=      5-min Rain = 0
KAM2 120444Z 17012KT 29/14 A3008 RMK A01 T02870135  RH  039%=      5-min Rain = 0
KAM2 120445Z 17013KT 29/14 A3008 RMK A01 T02870135  RH  039%=      5-min Rain = 0
KAM2 120446Z 17014KT 29/14 A3008 RMK A01 T02860135  RH  039%=      5-min Rain = 0
KAM2 120447Z 17012KT 29/14 A3008 RMK A01 T02870136  RH  040%=      5-min Rain = 0
KAM2 120448Z 17013KT 29/14 A3008 RMK A01 T02860135  RH  040%=      5-min Rain = 0
KAM2 120449Z 17012KT 29/14 A3009 RMK A01 T02870136  RH  040%=      5-min Rain = 0
KAM2 120450Z 17011KT 29/14 A3009 RMK A01 T02860136  RH  040%=      5-min Rain = 0
KAM2 120451Z 17011KT 29/14 A3009 RMK A01 T02850137  RH  040%=      5-min Rain = 0
KAM2 120452Z 17010KT 29/14 A3009 RMK A01 T02850137  RH  040%=      5-min Rain = 0
KAM2 120453Z 18011KT 28/14 A3009 RMK A01 T02840137  RH  040%=      5-min Rain = 0
KAM2 120454Z 17009KT 28/14 A3009 RMK A01 T02840137  RH  041%=      5-min Rain = 0
KAM2 120455Z 17008KT 28/14 A3009 RMK A01 T02830138  RH  041%=      5-min Rain = 0
KAM2 120456Z 17010KT 28/14 A3009 RMK A01 T02820138  RH  041%=      5-min Rain = 0
KAM2 120457Z 17009KT 28/14 A3009 RMK A01 T02810138  RH  041%=      5-min Rain = 0
KAM2 120458Z 17009KT 28/14 A3009 RMK A01 T02820138  RH  041%=      5-min Rain = 0
KAM2 120459Z 17010KT 28/14 A3009 RMK A01 T02820138  RH  041%=      5-min Rain = 0

Page generated in 0.036 seconds.